Time,TemperatureF,DewpointF,PressureIn,WindDirection,WindDirectionDegrees,WindSpeedMPH,WindSpeedGustMPH,Humidity,HourlyPrecipIn,Conditions,Clouds,dailyrainin,SoftwareType,DateUTC
2013-03-17 00:00:00,36.9,29.3,29.75,West,270,1.3,1.3,74,0.00,CLR,,0.00,WeatherDisplay:10.37,2013-03-17 07:00:00,
2013-03-17 00:02:00,36.9,29.3,29.75,West,270,1.3,1.3,74,0.00,CLR,,0.00,WeatherDisplay:10.37,2013-03-17 07:02:00,
2013-03-17 00:04:00,36.9,29.3,29.75,West,270,1.3,1.3,74,0.00,CLR,,0.00,WeatherDisplay:10.37,2013-03-17 07:04:00,
2013-03-17 00:05:00,36.9,29.3,29.75,West,270,1.3,1.3,74,0.00,CLR,,0.00,WeatherDisplay:10.37,2013-03-17 07:05:00,
2013-03-17 00:07:00,36.9,29.3,29.75,West,270,1.3,1.3,74,0.00,CLR,,0.00,WeatherDisplay:10.37,2013-03-17 07:07:00,
2013-03-17 00:09:00,36.9,29.3,29.75,West,270,1.3,1.3,74,0.00,CLR,,0.00,WeatherDisplay:10.37,2013-03-17 07:09:00,
2013-03-17 00:10:00,36.9,29.3,29.75,West,270,1.3,1.3,74,0.00,CLR,,0.00,WeatherDisplay:10.37,2013-03-17 07:10:00,
2013-03-17 00:12:00,36.9,29.3,29.75,West,270,1.3,1.3,74,0.00,CLR,,0.00,WeatherDisplay:10.37,2013-03-17 07:12:00,
2013-03-17 00:14:00,36.9,29.3,29.75,West,270,1.3,1.3,74,0.00,CLR,,0.00,WeatherDisplay:10.37,2013-03-17 07:14:00,
2013-03-17 00:15:00,36.9,29.3,29.75,West,270,1.3,1.3,74,0.00,CLR,,0.00,WeatherDisplay:10.37,2013-03-17 07:15:00,
2013-03-17 00:17:00,36.9,29.3,29.75,West,270,1.3,1.3,74,0.00,CLR,,0.00,WeatherDisplay:10.37,2013-03-17 07:17:00,
2013-03-17 00:19:00,36.9,29.3,29.75,West,270,1.3,1.3,74,0.00,CLR,,0.00,WeatherDisplay:10.37,2013-03-17 07:19:00,
2013-03-17 00:20:00,36.9,29.3,29.75,West,270,1.3,1.3,74,0.00,CLR,,0.00,WeatherDisplay:10.37,2013-03-17 07:20:00,
2013-03-17 00:23:00,36.9,29.3,29.75,West,270,1.3,1.3,74,0.00,CLR,,0.00,WeatherDisplay:10.37,2013-03-17 07:23:00,
2013-03-17 00:24:00,36.9,29.3,29.75,West,270,1.3,1.3,74,0.00,CLR,,0.00,WeatherDisplay:10.37,2013-03-17 07:24:00,
2013-03-17 00:25:00,36.9,29.3,29.75,West,270,1.3,1.3,74,0.00,CLR,,0.00,WeatherDisplay:10.37,2013-03-17 07:25:00,
2013-03-17 00:26:00,36.9,29.3,29.75,West,270,1.3,1.3,74,0.00,CLR,,0.00,WeatherDisplay:10.37,2013-03-17 07:26:00,
2013-03-17 00:28:00,36.9,29.3,29.75,West,270,1.3,1.3,74,0.00,CLR,,0.00,WeatherDisplay:10.37,2013-03-17 07:28:00,
2013-03-17 00:29:00,36.9,29.3,29.75,West,270,1.3,1.3,74,0.00,CLR,,0.00,WeatherDisplay:10.37,2013-03-17 07:29:00,
2013-03-17 00:30:00,36.9,29.3,29.75,West,270,1.3,1.3,74,0.00,CLR,,0.00,WeatherDisplay:10.37,2013-03-17 07:30:00,
2013-03-17 00:31:00,36.9,29.3,29.75,West,270,1.3,1.3,74,0.00,CLR,,0.00,WeatherDisplay:10.37,2013-03-17 07:31:00,
2013-03-17 00:33:00,36.9,29.3,29.75,West,270,1.3,1.3,74,0.00,CLR,,0.00,WeatherDisplay:10.37,2013-03-17 07:33:00,
2013-03-17 00:34:00,36.9,29.3,29.75,West,270,1.3,1.3,74,0.00,CLR,,0.00,WeatherDisplay:10.37,2013-03-17 07:34:00,
2013-03-17 00:35:00,36.9,29.3,29.75,West,270,1.3,1.3,74,0.00,CLR,,0.00,WeatherDisplay:10.37,2013-03-17 07:35:00,
2013-03-17 00:36:00,36.9,29.3,29.75,West,270,1.3,1.3,74,0.00,CLR,,0.00,WeatherDisplay:10.37,2013-03-17 07:36:00,
2013-03-17 00:38:00,36.9,29.3,29.75,West,270,1.3,1.3,74,0.00,CLR,,0.00,WeatherDisplay:10.37,2013-03-17 07:38:00,
2013-03-17 00:39:00,36.9,29.3,29.75,West,270,1.3,1.3,74,0.00,CLR,,0.00,WeatherDisplay:10.37,2013-03-17 07:39:00,
2013-03-17 00:40:00,36.9,29.3,29.75,West,270,1.3,1.3,74,0.00,CLR,,0.00,WeatherDisplay:10.37,2013-03-17 07:40:00,
2013-03-17 00:41:00,36.9,29.3,29.75,West,270,1.3,1.3,74,0.00,CLR,,0.00,WeatherDisplay:10.37,2013-03-17 07:41:00,
2013-03-17 00:43:00,36.9,29.3,29.75,West,270,1.3,1.3,74,0.00,CLR,,0.00,WeatherDisplay:10.37,2013-03-17 07:43:00,
2013-03-17 00:45:00,36.9,29.3,29.75,West,270,1.3,1.3,74,0.00,CLR,,0.00,WeatherDisplay:10.37,2013-03-17 07:45:00,
2013-03-17 00:47:00,36.9,29.3,29.75,West,270,1.3,1.3,74,0.00,CLR,,0.00,WeatherDisplay:10.37,2013-03-17 07:47:00,
2013-03-17 00:48:00,36.9,29.3,29.75,West,270,1.3,1.3,74,0.00,CLR,,0.00,WeatherDisplay:10.37,2013-03-17 07:48:00,
2013-03-17 00:50:00,36.9,29.3,29.75,West,270,1.3,1.3,74,0.00,CLR,,0.00,WeatherDisplay:10.37,2013-03-17 07:50:00,
2013-03-17 00:51:00,36.9,29.3,29.75,West,270,1.3,1.3,74,0.00,CLR,,0.00,WeatherDisplay:10.37,2013-03-17 07:51:00,
2013-03-17 00:53:00,36.9,29.3,29.75,West,270,1.3,1.3,74,0.00,CLR,,0.00,WeatherDisplay:10.37,2013-03-17 07:53:00,
2013-03-17 00:54:00,36.9,29.3,29.75,West,270,1.3,1.3,74,0.00,CLR,,0.00,WeatherDisplay:10.37,2013-03-17 07:54:00,
2013-03-17 00:55:00,36.9,29.3,29.75,West,270,1.3,1.3,74,0.00,CLR,,0.00,WeatherDisplay:10.37,2013-03-17 07:55:00,
2013-03-17 00:56:00,36.9,29.3,29.75,West,270,1.3,1.3,74,0.00,CLR,,0.00,WeatherDisplay:10.37,2013-03-17 07:56:00,
2013-03-17 00:58:00,36.9,29.3,29.75,West,270,1.3,1.3,74,0.00,CLR,,0.00,WeatherDisplay:10.37,2013-03-17 07:58:00,
2013-03-17 00:59:00,36.9,29.3,29.75,West,270,1.3,1.3,74,0.00,CLR,,0.00,WeatherDisplay:10.37,2013-03-17 07:59:00,
2013-03-17 01:00:00,36.9,29.3,29.75,West,270,1.3,1.3,74,0.00,CLR,,0.00,WeatherDisplay:10.37,2013-03-17 08:00:00,
2013-03-17 01:03:00,36.9,29.3,29.75,West,270,1.3,1.3,74,0.00,CLR,,0.00,WeatherDisplay:10.37,2013-03-17 08:03:00,
2013-03-17 01:04:00,36.9,29.3,29.75,West,270,1.3,1.3,74,0.00,CLR,,0.00,WeatherDisplay:10.37,2013-03-17 08:04:00,
2013-03-17 01:05:00,36.9,29.3,29.75,West,270,1.3,1.3,74,0.00,CLR,,0.00,WeatherDisplay:10.37,2013-03-17 08:05:00,
2013-03-17 01:08:00,36.9,29.3,29.75,West,270,1.3,1.3,74,0.00,CLR,,0.00,WeatherDisplay:10.37,2013-03-17 08:08:00,
2013-03-17 01:09:00,36.9,29.3,29.75,West,270,1.3,1.3,74,0.00,CLR,,0.00,WeatherDisplay:10.37,2013-03-17 08:09:00,
2013-03-17 01:10:00,36.9,29.3,29.75,West,270,1.3,1.3,74,0.00,CLR,,0.00,WeatherDisplay:10.37,2013-03-17 08:10:00,
2013-03-17 01:14:00,36.9,29.3,29.75,West,270,1.3,1.3,74,0.00,CLR,,0.00,WeatherDisplay:10.37,2013-03-17 08:14:00,
2013-03-17 01:15:00,36.9,29.3,29.75,West,270,1.3,1.3,74,0.00,CLR,,0.00,WeatherDisplay:10.37,2013-03-17 08:15:00,
2013-03-17 01:19:00,36.9,29.3,29.75,West,270,1.3,1.3,74,0.00,CLR,,0.00,WeatherDisplay:10.37,2013-03-17 08:19:00,
2013-03-17 01:20:00,36.9,29.3,29.75,West,270,1.3,1.3,74,0.00,CLR,,0.00,WeatherDisplay:10.37,2013-03-17 08:20:00,
2013-03-17 01:24:00,36.9,29.3,29.75,West,270,1.3,1.3,74,0.00,CLR,,0.00,WeatherDisplay:10.37,2013-03-17 08:24:00,
2013-03-17 01:25:00,36.9,29.3,29.75,West,270,1.3,1.3,74,0.00,CLR,,0.00,WeatherDisplay:10.37,2013-03-17 08:25:00,
2013-03-17 01:26:00,36.9,29.3,29.75,West,270,1.3,1.3,74,0.00,CLR,,0.00,WeatherDisplay:10.37,2013-03-17 08:26:00,
2013-03-17 01:29:00,36.9,29.3,29.75,West,270,1.3,1.3,74,0.00,CLR,,0.00,WeatherDisplay:10.37,2013-03-17 08:29:00,
2013-03-17 01:30:00,36.9,29.3,29.75,West,270,1.3,1.3,74,0.00,CLR,,0.00,WeatherDisplay:10.37,2013-03-17 08:30:00,
2013-03-17 01:31:00,36.9,29.3,29.75,West,270,1.3,1.3,74,0.00,CLR,,0.00,WeatherDisplay:10.37,2013-03-17 08:31:00,
2013-03-17 04:35:00,27.3,20.8,29.73,NW,315,0.9,1.1,76,0.00,CLR,,0.00,WeatherDisplay:10.37,2013-03-17 11:35:00,
2013-03-17 04:40:00,27.1,20.3,29.73,NW,315,0.9,2.3,75,0.00,CLR,,0.00,WeatherDisplay:10.37,2013-03-17 11:40:00,
2013-03-17 04:45:00,26.8,19.9,29.73,West,270,0.5,2.3,75,0.00,CLR,,0.00,WeatherDisplay:10.37,2013-03-17 11:45:00,
2013-03-17 04:50:00,26.8,19.9,29.73,WNW,288,0.0,2.0,75,0.00,CLR,CLR,0.00,WeatherDisplay:10.37,2013-03-17 11:50:00,
2013-03-17 04:55:00,26.6,19.4,29.73,ESE,112,0.2,0.0,74,0.00,CLR,,0.00,WeatherDisplay:10.37,2013-03-17 11:55:00,
2013-03-17 05:00:00,26.2,18.8,29.73,SE,135,0.2,2.6,73,0.00,CLR,,0.00,WeatherDisplay:10.37,2013-03-17 12:00:00,
2013-03-17 05:01:00,26.1,18.6,29.73,SE,135,0.2,2.3,73,0.00,CLR,,0.00,WeatherDisplay:10.37,2013-03-17 12:01:00,
2013-03-17 05:05:00,26.1,18.3,29.73,NNW,338,0.6,1.1,72,0.00,CLR,,0.00,WeatherDisplay:10.37,2013-03-17 12:05:00,
2013-03-17 05:06:00,26.1,18.3,29.73,NNW,338,0.6,1.1,72,0.00,CLR,,0.00,WeatherDisplay:10.37,2013-03-17 12:06:00,
2013-03-17 05:10:00,26.2,18.1,29.73,SE,135,1.0,1.1,71,0.00,CLR,,0.00,WeatherDisplay:10.37,2013-03-17 12:10:00,
2013-03-17 05:11:00,26.1,17.9,29.73,SE,135,1.0,1.1,71,0.00,CLR,,0.00,WeatherDisplay:10.37,2013-03-17 12:11:00,
2013-03-17 05:12:00,26.1,17.9,29.73,SSE,158,1.1,3.5,71,0.00,CLR,,0.00,WeatherDisplay:10.37,2013-03-17 12:12:00,
2013-03-17 05:15:00,26.2,18.1,29.73,ESE,112,1.3,2.3,71,0.00,CLR,,0.00,WeatherDisplay:10.37,2013-03-17 12:15:00,
2013-03-17 05:16:00,26.2,18.1,29.73,ESE,112,1.3,2.3,71,0.00,CLR,,0.00,WeatherDisplay:10.37,2013-03-17 12:16:00,
2013-03-17 05:17:00,26.2,18.1,29.73,ESE,112,1.3,0.0,71,0.00,CLR,,0.00,WeatherDisplay:10.37,2013-03-17 12:17:00,
2013-03-17 05:20:00,26.4,18.6,29.73,South,180,2.2,5.8,72,0.00,CLR,,0.00,WeatherDisplay:10.37,2013-03-17 12:20:00,
2013-03-17 05:21:00,26.4,18.6,29.73,SE,135,2.6,5.8,72,0.00,CLR,,0.00,WeatherDisplay:10.37,2013-03-17 12:21:00,
2013-03-17 05:22:00,26.4,18.6,29.73,SE,135,2.6,5.8,72,0.00,CLR,,0.00,WeatherDisplay:10.37,2013-03-17 12:22:00,
2013-03-17 05:25:00,26.8,19.0,29.73,SSE,158,3.7,4.6,72,0.00,CLR,,0.00,WeatherDisplay:10.37,2013-03-17 12:25:00,
2013-03-17 05:26:00,26.8,19.0,29.73,SSE,158,3.7,6.0,72,0.00,CLR,,0.00,WeatherDisplay:10.37,2013-03-17 12:26:00,
2013-03-17 05:27:00,26.8,19.0,29.73,SSE,158,3.7,5.8,72,0.00,CLR,,0.00,WeatherDisplay:10.37,2013-03-17 12:27:00,
2013-03-17 05:30:00,26.4,18.3,29.73,East,90,3.7,4.6,71,0.00,CLR,,0.00,WeatherDisplay:10.37,2013-03-17 12:30:00,
2013-03-17 05:32:00,26.4,18.3,29.73,North,0,3.3,3.3,71,0.00,CLR,,0.00,WeatherDisplay:10.37,2013-03-17 12:32:00,
2013-03-17 05:33:00,26.8,18.6,29.73,North,0,3.3,6.2,71,0.00,CLR,,0.00,WeatherDisplay:10.37,2013-03-17 12:33:00,
2013-03-17 05:36:00,26.8,18.6,29.73,South,180,2.6,2.6,71,0.00,CLR,,0.00,WeatherDisplay:10.37,2013-03-17 12:36:00,
2013-03-17 05:37:00,26.8,18.3,29.73,South,180,2.6,0.0,70,0.00,CLR,,0.00,WeatherDisplay:10.37,2013-03-17 12:37:00,
2013-03-17 05:38:00,26.8,18.3,29.73,SE,135,2.0,2.0,70,0.00,CLR,,0.00,WeatherDisplay:10.37,2013-03-17 12:38:00,
2013-03-17 05:41:00,26.2,17.8,29.73,SE,135,1.5,2.3,70,0.00,CLR,,0.00,WeatherDisplay:10.37,2013-03-17 12:41:00,
2013-03-17 07:18:00,26.2,18.1,29.73,SE,135,1.5,1.5,71,0.00,CLR,,0.00,WeatherDisplay:10.37,2013-03-17 14:18:00,
2013-03-17 07:23:00,26.2,18.1,29.73,SE,135,1.5,1.5,71,0.00,CLR,,0.00,WeatherDisplay:10.37,2013-03-17 14:23:00,
2013-03-17 07:28:00,26.2,18.1,29.73,SE,135,1.5,1.5,71,0.00,CLR,,0.00,WeatherDisplay:10.37,2013-03-17 14:28:00,
2013-03-17 07:33:00,26.2,18.1,29.73,SE,135,1.5,1.5,71,0.00,CLR,,0.00,WeatherDisplay:10.37,2013-03-17 14:33:00,
2013-03-17 07:34:00,26.2,18.1,29.73,SE,135,1.5,1.5,71,0.00,CLR,,0.00,WeatherDisplay:10.37,2013-03-17 14:34:00,
2013-03-17 07:38:00,26.2,18.1,29.73,SE,135,1.5,1.5,71,0.00,CLR,,0.00,WeatherDisplay:10.37,2013-03-17 14:38:00,
2013-03-17 07:39:00,26.2,18.1,29.73,SE,135,1.5,1.5,71,0.00,CLR,,0.00,WeatherDisplay:10.37,2013-03-17 14:39:00,
2013-03-17 07:43:00,26.2,18.1,29.73,SE,135,1.5,1.5,71,0.00,CLR,,0.00,WeatherDisplay:10.37,2013-03-17 14:43:00,
2013-03-17 07:44:00,26.2,18.1,29.73,SE,135,1.5,1.5,71,0.00,CLR,,0.00,WeatherDisplay:10.37,2013-03-17 14:44:00,
2013-03-17 07:49:00,26.2,18.1,29.73,SE,135,1.5,1.5,71,0.00,CLR,,0.00,WeatherDisplay:10.37,2013-03-17 14:49:00,
2013-03-17 07:50:00,26.2,18.1,29.73,SE,135,1.5,1.5,71,0.00,CLR,,0.00,WeatherDisplay:10.37,2013-03-17 14:50:00,
2013-03-17 07:54:00,26.2,18.1,29.73,SE,135,1.5,1.5,71,0.00,CLR,,0.00,WeatherDisplay:10.37,2013-03-17 14:54:00,
2013-03-17 07:55:00,26.2,18.1,29.73,SE,135,1.5,1.5,71,0.00,CLR,,0.00,WeatherDisplay:10.37,2013-03-17 14:55:00,
2013-03-17 07:59:00,26.2,18.1,29.73,SE,135,1.5,1.5,71,0.00,CLR,,0.00,WeatherDisplay:10.37,2013-03-17 14:59:00,
2013-03-17 08:00:00,26.2,18.1,29.73,SE,135,1.5,1.5,71,0.00,CLR,,0.00,WeatherDisplay:10.37,2013-03-17 15:00:00,
2013-03-17 08:04:00,26.2,18.1,29.73,SE,135,1.5,1.5,71,0.00,CLR,,0.00,WeatherDisplay:10.37,2013-03-17 15:04:00,
2013-03-17 08:05:00,26.2,18.1,29.73,SE,135,1.5,1.5,71,0.00,CLR,,0.00,WeatherDisplay:10.37,2013-03-17 15:05:00,
2013-03-17 08:09:00,26.2,18.1,29.73,SE,135,1.5,1.5,71,0.00,CLR,,0.00,WeatherDisplay:10.37,2013-03-17 15:09:00,
2013-03-17 08:10:00,26.2,18.1,29.73,SE,135,1.5,1.5,71,0.00,CLR,,0.00,WeatherDisplay:10.37,2013-03-17 15:10:00,
2013-03-17 08:14:00,26.2,18.1,29.73,SE,135,1.5,1.5,71,0.00,CLR,,0.00,WeatherDisplay:10.37,2013-03-17 15:14:00,
2013-03-17 08:15:00,26.2,18.1,29.73,SE,135,1.5,1.5,71,0.00,CLR,,0.00,WeatherDisplay:10.37,2013-03-17 15:15:00,
2013-03-17 08:20:00,26.2,18.1,29.73,SE,135,1.5,1.5,71,0.00,CLR,,0.00,WeatherDisplay:10.37,2013-03-17 15:20:00,
2013-03-17 08:25:00,26.2,18.1,29.73,SE,135,1.5,1.5,71,0.00,CLR,,0.00,WeatherDisplay:10.37,2013-03-17 15:25:00,
2013-03-17 08:27:00,26.2,18.1,29.73,SE,135,1.5,1.5,71,0.00,CLR,,0.00,WeatherDisplay:10.37,2013-03-17 15:27:00,
2013-03-17 08:30:00,26.2,18.1,29.73,SE,135,1.0,1.0,71,0.00,CLR,CLR,0.00,WeatherDisplay:10.37,2013-03-17 15:30:00,
2013-03-17 08:32:00,26.2,18.1,29.73,SE,135,1.5,1.5,71,0.00,CLR,,0.00,WeatherDisplay:10.37,2013-03-17 15:32:00,
2013-03-17 08:35:00,26.2,18.1,29.73,SE,135,1.5,1.5,71,0.00,CLR,,0.00,WeatherDisplay:10.37,2013-03-17 15:35:00,
2013-03-17 08:38:00,26.2,18.1,29.73,SE,135,1.5,1.5,71,0.00,CLR,,0.00,WeatherDisplay:10.37,2013-03-17 15:38:00,
2013-03-17 08:40:00,26.2,18.1,29.73,SE,135,1.5,1.5,71,0.00,CLR,,0.00,WeatherDisplay:10.37,2013-03-17 15:40:00,
2013-03-17 08:41:00,26.2,18.1,29.73,SE,135,1.5,1.5,71,0.00,CLR,,0.00,WeatherDisplay:10.37,2013-03-17 15:41:00,
2013-03-17 08:44:00,26.2,18.1,29.73,SE,135,1.5,1.5,71,0.00,CLR,,0.00,WeatherDisplay:10.37,2013-03-17 15:44:00,
2013-03-17 08:45:00,26.2,18.1,29.73,SE,135,1.5,1.5,71,0.00,CLR,,0.00,WeatherDisplay:10.37,2013-03-17 15:45:00,
2013-03-17 08:46:00,26.2,18.1,29.73,SE,135,1.5,1.5,71,0.00,CLR,,0.00,WeatherDisplay:10.37,2013-03-17 15:46:00,
2013-03-17 08:49:00,26.2,18.1,29.73,SE,135,1.5,1.5,71,0.00,CLR,,0.00,WeatherDisplay:10.37,2013-03-17 15:49:00,
2013-03-17 08:50:00,26.2,18.1,29.73,SE,135,1.5,1.5,71,0.00,CLR,,0.00,WeatherDisplay:10.37,2013-03-17 15:50:00,
2013-03-17 08:51:00,26.2,18.1,29.73,SE,135,1.5,1.5,71,0.00,CLR,,0.00,WeatherDisplay:10.37,2013-03-17 15:51:00,
2013-03-17 08:52:00,26.2,18.1,29.73,SE,135,1.5,1.5,71,0.00,CLR,,0.00,WeatherDisplay:10.37,2013-03-17 15:52:00,
2013-03-17 08:54:00,26.2,18.1,29.73,SE,135,1.5,1.5,71,0.00,CLR,,0.00,WeatherDisplay:10.37,2013-03-17 15:54:00,
2013-03-17 08:55:00,26.2,18.1,29.73,SE,135,1.5,1.5,71,0.00,CLR,,0.00,WeatherDisplay:10.37,2013-03-17 15:55:00,
2013-03-17 08:56:00,26.2,18.1,29.73,SE,135,1.5,1.5,71,0.00,CLR,,0.00,WeatherDisplay:10.37,2013-03-17 15:56:00,
2013-03-17 08:57:00,26.2,18.1,29.73,SE,135,1.5,1.5,71,0.00,CLR,,0.00,WeatherDisplay:10.37,2013-03-17 15:57:00,
2013-03-17 08:59:00,26.2,18.1,29.73,SE,135,1.5,1.5,71,0.00,CLR,,0.00,WeatherDisplay:10.37,2013-03-17 15:59:00,
2013-03-17 09:00:00,26.2,18.1,29.73,SE,135,1.5,1.5,71,0.00,CLR,,0.00,WeatherDisplay:10.37,2013-03-17 16:00:00,
2013-03-17 09:01:00,26.2,18.1,29.73,SE,135,1.5,1.5,71,0.00,CLR,,0.00,WeatherDisplay:10.37,2013-03-17 16:01:00,
2013-03-17 09:02:00,26.2,18.1,29.73,SE,135,1.5,1.5,71,0.00,CLR,,0.00,WeatherDisplay:10.37,2013-03-17 16:02:00,
2013-03-17 09:04:00,26.2,18.1,29.73,SE,135,1.5,1.5,71,0.00,CLR,,0.00,WeatherDisplay:10.37,2013-03-17 16:04:00,
2013-03-17 09:05:00,26.2,18.1,29.73,SE,135,1.5,1.5,71,0.00,CLR,,0.00,WeatherDisplay:10.37,2013-03-17 16:05:00,
2013-03-17 09:06:00,26.2,18.1,29.73,SE,135,1.5,1.5,71,0.00,CLR,,0.00,WeatherDisplay:10.37,2013-03-17 16:06:00,
2013-03-17 09:07:00,26.2,18.1,29.73,SE,135,1.5,1.5,71,0.00,CLR,,0.00,WeatherDisplay:10.37,2013-03-17 16:07:00,
2013-03-17 09:09:00,26.2,18.1,29.73,SE,135,1.5,1.5,71,0.00,CLR,,0.00,WeatherDisplay:10.37,2013-03-17 16:09:00,
2013-03-17 09:11:00,26.2,18.1,29.73,SE,135,1.5,1.5,71,0.00,CLR,,0.00,WeatherDisplay:10.37,2013-03-17 16:11:00,
2013-03-17 09:12:00,26.2,18.1,29.73,SE,135,1.5,1.5,71,0.00,CLR,,0.00,WeatherDisplay:10.37,2013-03-17 16:12:00,
2013-03-17 09:14:00,26.2,18.1,29.73,SE,135,1.5,1.5,71,0.00,CLR,,0.00,WeatherDisplay:10.37,2013-03-17 16:14:00,
2013-03-17 09:16:00,26.2,18.1,29.73,SE,135,1.5,1.5,71,0.00,CLR,,0.00,WeatherDisplay:10.37,2013-03-17 16:16:00,
2013-03-17 09:17:00,26.2,18.1,29.73,SE,135,1.5,1.5,71,0.00,CLR,,0.00,WeatherDisplay:10.37,2013-03-17 16:17:00,
2013-03-17 09:19:00,26.2,18.1,29.73,SE,135,1.5,1.5,71,0.00,CLR,,0.00,WeatherDisplay:10.37,2013-03-17 16:19:00,
2013-03-17 09:22:00,26.2,18.1,29.73,SE,135,1.5,1.5,71,0.00,CLR,,0.00,WeatherDisplay:10.37,2013-03-17 16:22:00,
2013-03-17 09:24:00,26.2,18.1,29.73,SE,135,1.5,1.5,71,0.00,CLR,,0.00,WeatherDisplay:10.37,2013-03-17 16:24:00,
2013-03-17 09:28:00,26.2,18.1,29.73,SE,135,1.5,1.5,71,0.00,CLR,,0.00,WeatherDisplay:10.37,2013-03-17 16:28:00,
2013-03-17 09:29:00,26.2,18.1,29.73,SE,135,1.5,1.5,71,0.00,CLR,,0.00,WeatherDisplay:10.37,2013-03-17 16:29:00,
2013-03-17 09:33:00,26.2,18.1,29.73,SE,135,1.5,1.5,71,0.00,CLR,,0.00,WeatherDisplay:10.37,2013-03-17 16:33:00,
2013-03-17 09:34:00,26.2,18.1,29.73,SE,135,1.5,1.5,71,0.00,CLR,,0.00,WeatherDisplay:10.37,2013-03-17 16:34:00,
2013-03-17 09:35:00,26.2,18.1,29.73,SE,135,1.5,1.5,71,0.00,CLR,,0.00,WeatherDisplay:10.37,2013-03-17 16:35:00,
2013-03-17 09:38:00,26.2,18.1,29.73,SE,135,1.5,1.5,71,0.00,CLR,,0.00,WeatherDisplay:10.37,2013-03-17 16:38:00,
2013-03-17 09:39:00,26.2,18.1,29.73,SE,135,1.5,1.5,71,0.00,CLR,,0.00,WeatherDisplay:10.37,2013-03-17 16:39:00,
2013-03-17 09:40:00,26.2,18.1,29.73,SE,135,1.5,1.5,71,0.00,CLR,,0.00,WeatherDisplay:10.37,2013-03-17 16:40:00,
2013-03-17 09:43:00,26.2,18.1,29.73,SE,135,1.5,1.5,71,0.00,CLR,,0.00,WeatherDisplay:10.37,2013-03-17 16:43:00,
2013-03-17 09:44:00,26.2,18.1,29.73,SE,135,1.5,1.5,71,0.00,CLR,,0.00,WeatherDisplay:10.37,2013-03-17 16:44:00,
2013-03-17 09:45:00,26.2,18.1,29.73,SE,135,1.5,1.5,71,0.00,CLR,,0.00,WeatherDisplay:10.37,2013-03-17 16:45:00,
2013-03-17 09:48:00,26.2,18.1,29.73,SE,135,1.5,1.5,71,0.00,CLR,,0.00,WeatherDisplay:10.37,2013-03-17 16:48:00,
2013-03-17 09:49:00,26.2,18.1,29.73,SE,135,1.5,1.5,71,0.00,CLR,,0.00,WeatherDisplay:10.37,2013-03-17 16:49:00,
2013-03-17 09:50:00,26.2,18.1,29.73,SE,135,1.5,1.5,71,0.00,CLR,,0.00,WeatherDisplay:10.37,2013-03-17 16:50:00,
2013-03-17 09:54:00,26.2,18.1,29.73,SE,135,1.5,1.5,71,0.00,CLR,,0.00,WeatherDisplay:10.37,2013-03-17 16:54:00,
2013-03-17 09:55:00,26.2,18.1,29.73,SE,135,1.5,1.5,71,0.00,CLR,,0.00,WeatherDisplay:10.37,2013-03-17 16:55:00,
2013-03-17 09:56:00,26.2,18.1,29.73,SE,135,1.5,1.5,71,0.00,CLR,,0.00,WeatherDisplay:10.37,2013-03-17 16:56:00,
2013-03-17 09:59:00,26.2,18.1,29.73,SE,135,1.5,1.5,71,0.00,CLR,,0.00,WeatherDisplay:10.37,2013-03-17 16:59:00,
2013-03-17 10:00:00,26.2,18.1,29.73,SE,135,1.5,1.5,71,0.00,CLR,,0.00,WeatherDisplay:10.37,2013-03-17 17:00:00,
2013-03-17 10:04:00,26.2,18.1,29.73,SE,135,1.5,1.5,71,0.00,CLR,,0.00,WeatherDisplay:10.37,2013-03-17 17:04:00,
2013-03-17 10:05:00,26.2,18.1,29.73,SE,135,1.5,1.5,71,0.00,CLR,,0.00,WeatherDisplay:10.37,2013-03-17 17:05:00,
2013-03-17 10:06:00,26.2,18.1,29.73,SE,135,1.5,1.5,71,0.00,CLR,,0.00,WeatherDisplay:10.37,2013-03-17 17:06:00,
2013-03-17 10:09:00,26.2,18.1,29.73,SE,135,1.5,1.5,71,0.00,CLR,,0.00,WeatherDisplay:10.37,2013-03-17 17:09:00,
2013-03-17 10:10:00,26.2,18.1,29.73,SE,135,1.5,1.5,71,0.00,CLR,,0.00,WeatherDisplay:10.37,2013-03-17 17:10:00,
2013-03-17 10:11:00,26.2,18.1,29.73,SE,135,1.5,1.5,71,0.00,CLR,,0.00,WeatherDisplay:10.37,2013-03-17 17:11:00,
2013-03-17 10:14:00,26.2,18.1,29.73,SE,135,1.5,1.5,71,0.00,CLR,,0.00,WeatherDisplay:10.37,2013-03-17 17:14:00,
2013-03-17 10:15:00,26.2,18.1,29.73,SE,135,1.5,1.5,71,0.00,CLR,,0.00,WeatherDisplay:10.37,2013-03-17 17:15:00,
2013-03-17 10:16:00,26.2,18.1,29.73,SE,135,1.5,1.5,71,0.00,CLR,,0.00,WeatherDisplay:10.37,2013-03-17 17:16:00,
2013-03-17 10:19:00,26.2,18.1,29.73,SE,135,1.5,1.5,71,0.00,CLR,,0.00,WeatherDisplay:10.37,2013-03-17 17:19:00,
2013-03-17 10:20:00,26.2,18.1,29.73,SE,135,1.5,1.5,71,0.00,CLR,,0.00,WeatherDisplay:10.37,2013-03-17 17:20:00,
2013-03-17 10:21:00,26.2,18.1,29.73,SE,135,1.5,1.5,71,0.00,CLR,,0.00,WeatherDisplay:10.37,2013-03-17 17:21:00,
2013-03-17 10:24:00,26.2,18.1,29.73,SE,135,1.5,1.5,71,0.00,CLR,,0.00,WeatherDisplay:10.37,2013-03-17 17:24:00,
2013-03-17 10:25:00,26.2,18.1,29.73,SE,135,1.5,1.5,71,0.00,CLR,,0.00,WeatherDisplay:10.37,2013-03-17 17:25:00,
2013-03-17 10:27:00,26.2,18.1,29.73,SE,135,1.5,1.5,71,0.00,CLR,,0.00,WeatherDisplay:10.37,2013-03-17 17:27:00,
2013-03-17 10:29:00,26.2,18.1,29.73,SE,135,1.5,1.5,71,0.00,CLR,,0.00,WeatherDisplay:10.37,2013-03-17 17:29:00,
2013-03-17 10:30:00,26.2,18.1,29.73,SE,135,1.5,1.5,71,0.00,CLR,,0.00,WeatherDisplay:10.37,2013-03-17 17:30:00,
2013-03-17 10:32:00,26.2,18.1,29.73,SE,135,1.5,1.5,71,0.00,CLR,,0.00,WeatherDisplay:10.37,2013-03-17 17:32:00,
2013-03-17 10:34:00,26.2,18.1,29.73,SE,135,1.5,1.5,71,0.00,CLR,,0.00,WeatherDisplay:10.37,2013-03-17 17:34:00,
2013-03-17 10:35:00,26.2,18.1,29.73,SE,135,1.5,1.5,71,0.00,CLR,,0.00,WeatherDisplay:10.37,2013-03-17 17:35:00,
2013-03-17 10:37:00,26.2,18.1,29.73,SE,135,1.5,1.5,71,0.00,CLR,,0.00,WeatherDisplay:10.37,2013-03-17 17:37:00,
2013-03-17 10:39:00,26.2,18.1,29.73,SE,135,1.5,1.5,71,0.00,CLR,,0.00,WeatherDisplay:10.37,2013-03-17 17:39:00,
2013-03-17 10:40:00,26.2,18.1,29.73,SE,135,1.5,1.5,71,0.00,CLR,,0.00,WeatherDisplay:10.37,2013-03-17 17:40:00,
2013-03-17 10:42:00,26.2,18.1,29.73,SE,135,1.5,1.5,71,0.00,CLR,,0.00,WeatherDisplay:10.37,2013-03-17 17:42:00,
2013-03-17 10:45:00,26.2,18.1,29.73,SE,135,1.5,1.5,71,0.00,CLR,,0.00,WeatherDisplay:10.37,2013-03-17 17:45:00,
2013-03-17 10:47:00,26.2,18.1,29.73,SE,135,1.5,1.5,71,0.00,CLR,,0.00,WeatherDisplay:10.37,2013-03-17 17:47:00,
2013-03-17 10:48:00,26.2,18.1,29.73,SE,135,1.5,1.5,71,0.00,CLR,,0.00,WeatherDisplay:10.37,2013-03-17 17:48:00,
2013-03-17 10:50:00,26.2,18.1,29.73,SE,135,1.5,1.5,71,0.00,CLR,,0.00,WeatherDisplay:10.37,2013-03-17 17:50:00,
2013-03-17 10:52:00,26.2,18.1,29.73,SE,135,1.5,1.5,71,0.00,CLR,,0.00,WeatherDisplay:10.37,2013-03-17 17:52:00,
2013-03-17 10:53:00,26.2,18.1,29.73,SE,135,1.5,1.5,71,0.00,CLR,,0.00,WeatherDisplay:10.37,2013-03-17 17:53:00,
2013-03-17 10:55:00,26.2,18.1,29.73,SE,135,1.0,1.0,71,0.00,CLR,CLR,0.00,WeatherDisplay:10.37,2013-03-17 17:55:00,
2013-03-17 10:56:00,26.2,18.1,29.73,SE,135,1.5,1.5,71,0.00,CLR,,0.00,WeatherDisplay:10.37,2013-03-17 17:56:00,
2013-03-17 10:57:00,26.2,18.1,29.73,SE,135,1.5,1.5,71,0.00,CLR,,0.00,WeatherDisplay:10.37,2013-03-17 17:57:00,
2013-03-17 10:58:00,26.2,18.1,29.73,SE,135,1.5,1.5,71,0.00,CLR,,0.00,WeatherDisplay:10.37,2013-03-17 17:58:00,
2013-03-17 11:00:00,26.2,18.1,29.73,SE,135,1.0,1.0,71,0.00,CLR,CLR,0.00,WeatherDisplay:10.37,2013-03-17 18:00:00,
2013-03-17 11:02:00,26.2,18.1,29.73,SE,135,1.5,1.5,71,0.00,CLR,,0.00,WeatherDisplay:10.37,2013-03-17 18:02:00,
2013-03-17 11:03:00,26.2,18.1,29.73,SE,135,1.5,1.5,71,0.00,CLR,,0.00,WeatherDisplay:10.37,2013-03-17 18:03:00,
2013-03-17 11:05:00,26.2,18.1,29.73,SE,135,1.5,1.5,71,0.00,CLR,,0.00,WeatherDisplay:10.37,2013-03-17 18:05:00,
2013-03-17 11:07:00,26.2,18.1,29.73,SE,135,1.5,1.5,71,0.00,CLR,,0.00,WeatherDisplay:10.37,2013-03-17 18:07:00,
2013-03-17 11:08:00,26.2,18.1,29.73,SE,135,1.5,1.5,71,0.00,CLR,,0.00,WeatherDisplay:10.37,2013-03-17 18:08:00,
2013-03-17 11:10:00,26.2,18.1,29.73,SE,135,1.5,1.5,71,0.00,CLR,,0.00,WeatherDisplay:10.37,2013-03-17 18:10:00,
2013-03-17 11:12:00,26.2,18.1,29.73,SE,135,1.5,1.5,71,0.00,CLR,,0.00,WeatherDisplay:10.37,2013-03-17 18:12:00,
2013-03-17 11:13:00,26.2,18.1,29.73,SE,135,1.5,1.5,71,0.00,CLR,,0.00,WeatherDisplay:10.37,2013-03-17 18:13:00,
2013-03-17 11:14:00,26.2,18.1,29.73,SE,135,1.5,1.5,71,0.00,CLR,,0.00,WeatherDisplay:10.37,2013-03-17 18:14:00,
2013-03-17 11:15:00,26.2,18.1,29.73,SE,135,1.5,1.5,71,0.00,CLR,,0.00,WeatherDisplay:10.37,2013-03-17 18:15:00,
2013-03-17 11:17:00,26.2,18.1,29.73,SE,135,1.5,1.5,71,0.00,CLR,,0.00,WeatherDisplay:10.37,2013-03-17 18:17:00,
2013-03-17 11:19:00,26.2,18.1,29.73,SE,135,1.5,1.5,71,0.00,CLR,,0.00,WeatherDisplay:10.37,2013-03-17 18:19:00,
2013-03-17 11:20:00,26.2,18.1,29.73,SE,135,1.5,1.5,71,0.00,CLR,,0.00,WeatherDisplay:10.37,2013-03-17 18:20:00,
2013-03-17 11:22:00,26.2,18.1,29.73,SE,135,1.5,1.5,71,0.00,CLR,,0.00,WeatherDisplay:10.37,2013-03-17 18:22:00,
2013-03-17 11:24:00,26.2,18.1,29.73,SE,135,1.5,1.5,71,0.00,CLR,,0.00,WeatherDisplay:10.37,2013-03-17 18:24:00,
2013-03-17 11:25:00,26.2,18.1,29.73,SE,135,1.5,1.5,71,0.00,CLR,,0.00,WeatherDisplay:10.37,2013-03-17 18:25:00,
2013-03-17 11:27:00,26.2,18.1,29.73,SE,135,1.5,1.5,71,0.00,CLR,,0.00,WeatherDisplay:10.37,2013-03-17 18:27:00,
2013-03-17 11:29:00,26.2,18.1,29.73,SE,135,1.5,1.5,71,0.00,CLR,,0.00,WeatherDisplay:10.37,2013-03-17 18:29:00,
2013-03-17 11:30:00,27.7,19.8,29.81,North,0,0.0,0.0,72,0.00,CLR,CLR,0.00,WeatherDisplay:10.37,2013-03-17 18:30:00,
2013-03-17 11:31:00,26.2,18.1,29.73,SE,135,1.5,1.5,71,0.00,CLR,,0.00,WeatherDisplay:10.37,2013-03-17 18:31:00,
2013-03-17 11:32:00,26.2,18.1,29.73,SE,135,1.5,1.5,71,0.00,CLR,,0.00,WeatherDisplay:10.37,2013-03-17 18:32:00,
2013-03-17 11:34:00,26.2,18.1,29.73,SE,135,1.5,1.5,71,0.00,CLR,,0.00,WeatherDisplay:10.37,2013-03-17 18:34:00,
2013-03-17 11:35:00,27.7,20.2,29.81,North,0,0.0,0.0,73,0.00,CLR,CLR,0.00,WeatherDisplay:10.37,2013-03-17 18:35:00,
2013-03-17 11:36:00,26.2,18.1,29.73,SE,135,1.5,1.5,71,0.00,CLR,,0.00,WeatherDisplay:10.37,2013-03-17 18:36:00,
2013-03-17 11:37:00,26.2,18.1,29.73,SE,135,1.5,1.5,71,0.00,CLR,,0.00,WeatherDisplay:10.37,2013-03-17 18:37:00,
2013-03-17 11:39:00,26.2,18.1,29.73,SE,135,1.5,1.5,71,0.00,CLR,,0.00,WeatherDisplay:10.37,2013-03-17 18:39:00,
2013-03-17 11:40:00,27.7,20.5,29.81,North,0,0.0,0.0,74,0.00,CLR,CLR,0.00,WeatherDisplay:10.37,2013-03-17 18:40:00,
2013-03-17 11:42:00,26.2,18.1,29.73,SE,135,1.5,1.5,71,0.00,CLR,,0.00,WeatherDisplay:10.37,2013-03-17 18:42:00,
2013-03-17 11:43:00,26.2,18.1,29.73,SE,135,1.5,1.5,71,0.00,CLR,,0.00,WeatherDisplay:10.37,2013-03-17 18:43:00,
2013-03-17 11:44:00,26.2,18.1,29.73,SE,135,1.5,1.5,71,0.00,CLR,,0.00,WeatherDisplay:10.37,2013-03-17 18:44:00,
2013-03-17 11:47:00,26.2,18.1,29.73,SE,135,1.5,1.5,71,0.00,CLR,,0.00,WeatherDisplay:10.37,2013-03-17 18:47:00,
2013-03-17 11:48:00,26.2,18.1,29.73,SE,135,1.5,1.5,71,0.00,CLR,,0.00,WeatherDisplay:10.37,2013-03-17 18:48:00,
2013-03-17 11:49:00,26.2,18.1,29.73,SE,135,1.5,1.5,71,0.00,CLR,,0.00,WeatherDisplay:10.37,2013-03-17 18:49:00,
2013-03-17 11:50:00,27.5,20.3,29.81,North,0,0.0,0.0,74,0.00,CLR,CLR,0.00,WeatherDisplay:10.37,2013-03-17 18:50:00,
2013-03-17 11:52:00,26.2,18.1,29.73,SE,135,1.5,1.5,71,0.00,CLR,,0.00,WeatherDisplay:10.37,2013-03-17 18:52:00,
2013-03-17 11:53:00,26.2,18.1,29.73,SE,135,1.5,1.5,71,0.00,CLR,,0.00,WeatherDisplay:10.37,2013-03-17 18:53:00,
2013-03-17 11:54:00,26.2,18.1,29.73,SE,135,1.5,1.5,71,0.00,CLR,,0.00,WeatherDisplay:10.37,2013-03-17 18:54:00,
2013-03-17 11:58:00,26.2,18.1,29.73,SE,135,1.5,1.5,71,0.00,CLR,,0.00,WeatherDisplay:10.37,2013-03-17 18:58:00,
2013-03-17 12:00:00,26.2,18.1,29.73,SE,135,1.5,1.5,71,0.00,CLR,,0.00,WeatherDisplay:10.37,2013-03-17 19:00:00,
2013-03-17 12:03:00,26.2,18.1,29.73,SE,135,1.5,1.5,71,0.00,CLR,,0.00,WeatherDisplay:10.37,2013-03-17 19:03:00,
2013-03-17 12:05:00,26.2,18.1,29.73,SE,135,1.5,1.5,71,0.00,CLR,,0.00,WeatherDisplay:10.37,2013-03-17 19:05:00,
2013-03-17 12:09:00,26.2,18.1,29.73,SE,135,1.5,1.5,71,0.00,CLR,,0.00,WeatherDisplay:10.37,2013-03-17 19:09:00,
2013-03-17 12:10:00,26.2,18.1,29.73,SE,135,1.5,1.5,71,0.00,CLR,,0.00,WeatherDisplay:10.37,2013-03-17 19:10:00,
2013-03-17 12:14:00,26.2,18.1,29.73,SE,135,1.5,1.5,71,0.00,CLR,,0.00,WeatherDisplay:10.37,2013-03-17 19:14:00,
2013-03-17 12:15:00,26.2,18.1,29.73,SE,135,1.5,1.5,71,0.00,CLR,,0.00,WeatherDisplay:10.37,2013-03-17 19:15:00,
2013-03-17 12:19:00,26.2,18.1,29.73,SE,135,1.5,1.5,71,0.00,CLR,,0.00,WeatherDisplay:10.37,2013-03-17 19:19:00,
2013-03-17 12:20:00,26.2,18.1,29.73,SE,135,1.5,1.5,71,0.00,CLR,,0.00,WeatherDisplay:10.37,2013-03-17 19:20:00,
2013-03-17 12:21:00,26.2,18.1,29.73,SE,135,1.5,1.5,71,0.00,CLR,,0.00,WeatherDisplay:10.37,2013-03-17 19:21:00,
2013-03-17 12:24:00,26.2,18.1,29.73,SE,135,1.5,1.5,71,0.00,CLR,,0.00,WeatherDisplay:10.37,2013-03-17 19:24:00,
2013-03-17 12:25:00,27.3,20.8,29.79,North,0,0.0,0.0,76,0.00,CLR,CLR,0.00,WeatherDisplay:10.37,2013-03-17 19:25:00,
2013-03-17 12:26:00,26.2,18.1,29.73,SE,135,1.5,1.5,71,0.00,CLR,,0.00,WeatherDisplay:10.37,2013-03-17 19:26:00,
2013-03-17 12:27:00,26.2,18.1,29.73,SE,135,1.5,1.5,71,0.00,CLR,,0.00,WeatherDisplay:10.37,2013-03-17 19:27:00,
2013-03-17 12:29:00,26.2,18.1,29.73,SE,135,1.5,1.5,71,0.00,CLR,,0.00,WeatherDisplay:10.37,2013-03-17 19:29:00,
2013-03-17 12:30:00,26.2,18.1,29.73,SE,135,1.5,1.5,71,0.00,CLR,,0.00,WeatherDisplay:10.37,2013-03-17 19:30:00,
2013-03-17 12:31:00,26.2,18.1,29.73,SE,135,1.5,1.5,71,0.00,CLR,,0.00,WeatherDisplay:10.37,2013-03-17 19:31:00,
2013-03-17 12:32:00,26.2,18.1,29.73,SE,135,1.5,1.5,71,0.00,CLR,,0.00,WeatherDisplay:10.37,2013-03-17 19:32:00,
2013-03-17 12:34:00,26.2,18.1,29.73,SE,135,1.5,1.5,71,0.00,CLR,,0.00,WeatherDisplay:10.37,2013-03-17 19:34:00,
2013-03-17 12:36:00,26.2,18.1,29.73,SE,135,1.5,1.5,71,0.00,CLR,,0.00,WeatherDisplay:10.37,2013-03-17 19:36:00,
2013-03-17 12:37:00,26.2,18.1,29.73,SE,135,1.5,1.5,71,0.00,CLR,,0.00,WeatherDisplay:10.37,2013-03-17 19:37:00,
2013-03-17 12:40:00,26.2,18.1,29.73,SE,135,1.5,1.5,71,0.00,CLR,,0.00,WeatherDisplay:10.37,2013-03-17 19:40:00,
2013-03-17 12:41:00,26.2,18.1,29.73,SE,135,1.5,1.5,71,0.00,CLR,,0.00,WeatherDisplay:10.37,2013-03-17 19:41:00,
2013-03-17 12:42:00,26.2,18.1,29.73,SE,135,1.5,1.5,71,0.00,CLR,,0.00,WeatherDisplay:10.37,2013-03-17 19:42:00,
2013-03-17 12:45:00,26.2,18.1,29.73,SE,135,1.5,1.5,71,0.00,CLR,,0.00,WeatherDisplay:10.37,2013-03-17 19:45:00,
2013-03-17 12:46:00,26.2,18.1,29.73,SE,135,1.5,1.5,71,0.00,CLR,,0.00,WeatherDisplay:10.37,2013-03-17 19:46:00,
2013-03-17 12:47:00,26.2,18.1,29.73,SE,135,1.5,1.5,71,0.00,CLR,,0.00,WeatherDisplay:10.37,2013-03-17 19:47:00,
2013-03-17 12:50:00,26.2,18.1,29.73,SE,135,1.5,1.5,71,0.00,CLR,,0.00,WeatherDisplay:10.37,2013-03-17 19:50:00,
2013-03-17 12:52:00,26.2,18.1,29.73,SE,135,1.5,1.5,71,0.00,CLR,,0.00,WeatherDisplay:10.37,2013-03-17 19:52:00,
2013-03-17 12:55:00,26.2,18.1,29.73,SE,135,1.5,1.5,71,0.00,CLR,,0.00,WeatherDisplay:10.37,2013-03-17 19:55:00,
2013-03-17 12:57:00,26.2,18.1,29.73,SE,135,1.5,1.5,71,0.00,CLR,,0.00,WeatherDisplay:10.37,2013-03-17 19:57:00,
2013-03-17 12:58:00,26.2,18.1,29.73,SE,135,1.5,1.5,71,0.00,CLR,,0.00,WeatherDisplay:10.37,2013-03-17 19:58:00,
2013-03-17 13:01:00,26.2,18.1,29.73,SE,135,1.5,1.5,71,0.00,CLR,,0.00,WeatherDisplay:10.37,2013-03-17 20:01:00,
2013-03-17 13:02:00,26.2,18.1,29.73,SE,135,1.5,1.5,71,0.00,CLR,,0.00,WeatherDisplay:10.37,2013-03-17 20:02:00,
2013-03-17 13:03:00,26.2,18.1,29.73,SE,135,1.5,1.5,71,0.00,CLR,,0.00,WeatherDisplay:10.37,2013-03-17 20:03:00,
2013-03-17 13:05:00,26.1,19.2,29.79,North,0,0.0,0.0,75,0.00,CLR,CLR,0.00,WeatherDisplay:10.37,2013-03-17 20:05:00,
2013-03-17 13:07:00,26.2,18.1,29.73,SE,135,1.5,1.5,71,0.00,CLR,,0.00,WeatherDisplay:10.37,2013-03-17 20:07:00,
2013-03-17 13:08:00,26.2,18.1,29.73,SE,135,1.5,1.5,71,0.00,CLR,,0.00,WeatherDisplay:10.37,2013-03-17 20:08:00,
2013-03-17 13:12:00,26.2,18.1,29.73,SE,135,1.5,1.5,71,0.00,CLR,,0.00,WeatherDisplay:10.37,2013-03-17 20:12:00,
2013-03-17 13:13:00,26.2,18.1,29.73,SE,135,1.5,1.5,71,0.00,CLR,,0.00,WeatherDisplay:10.37,2013-03-17 20:13:00,
2013-03-17 13:17:00,26.2,18.1,29.73,SE,135,1.5,1.5,71,0.00,CLR,,0.00,WeatherDisplay:10.37,2013-03-17 20:17:00,
2013-03-17 13:18:00,26.2,18.1,29.73,SE,135,1.5,1.5,71,0.00,CLR,,0.00,WeatherDisplay:10.37,2013-03-17 20:18:00,
2013-03-17 13:20:00,25.9,19.4,29.79,North,0,0.0,0.0,76,0.00,CLR,CLR,0.00,WeatherDisplay:10.37,2013-03-17 20:20:00,
2013-03-17 13:22:00,26.2,18.1,29.73,SE,135,1.5,1.5,71,0.00,CLR,,0.00,WeatherDisplay:10.37,2013-03-17 20:22:00,
2013-03-17 13:23:00,26.2,18.1,29.73,SE,135,1.5,1.5,71,0.00,CLR,,0.00,WeatherDisplay:10.37,2013-03-17 20:23:00,
2013-03-17 13:24:00,26.2,18.1,29.73,SE,135,1.5,1.5,71,0.00,CLR,,0.00,WeatherDisplay:10.37,2013-03-17 20:24:00,
2013-03-17 13:25:00,25.2,18.3,29.79,North,0,0.0,0.0,75,0.00,CLR,CLR,0.00,WeatherDisplay:10.37,2013-03-17 20:25:00,
2013-03-17 13:27:00,26.2,18.1,29.73,SE,135,1.5,1.5,71,0.00,CLR,,0.00,WeatherDisplay:10.37,2013-03-17 20:27:00,
2013-03-17 13:28:00,26.2,18.1,29.73,SE,135,1.5,1.5,71,0.00,CLR,,0.00,WeatherDisplay:10.37,2013-03-17 20:28:00,
2013-03-17 13:29:00,26.2,18.1,29.73,SE,135,1.5,1.5,71,0.00,CLR,,0.00,WeatherDisplay:10.37,2013-03-17 20:29:00,
2013-03-17 13:33:00,26.2,18.1,29.73,SE,135,1.5,1.5,71,0.00,CLR,,0.00,WeatherDisplay:10.37,2013-03-17 20:33:00,
2013-03-17 13:34:00,26.2,18.1,29.73,SE,135,1.5,1.5,71,0.00,CLR,,0.00,WeatherDisplay:10.37,2013-03-17 20:34:00,
2013-03-17 13:38:00,26.2,18.1,29.73,SE,135,1.5,1.5,71,0.00,CLR,,0.00,WeatherDisplay:10.37,2013-03-17 20:38:00,
2013-03-17 13:39:00,26.2,18.1,29.73,SE,135,1.5,1.5,71,0.00,CLR,,0.00,WeatherDisplay:10.37,2013-03-17 20:39:00,
2013-03-17 13:43:00,26.2,18.1,29.73,SE,135,1.5,1.5,71,0.00,CLR,,0.00,WeatherDisplay:10.37,2013-03-17 20:43:00,
2013-03-17 13:44:00,26.2,18.1,29.73,SE,135,1.5,1.5,71,0.00,CLR,,0.00,WeatherDisplay:10.37,2013-03-17 20:44:00,
2013-03-17 13:48:00,26.2,18.1,29.73,SE,135,1.5,1.5,71,0.00,CLR,,0.00,WeatherDisplay:10.37,2013-03-17 20:48:00,
2013-03-17 13:49:00,26.2,18.1,29.73,SE,135,1.5,1.5,71,0.00,CLR,,0.00,WeatherDisplay:10.37,2013-03-17 20:49:00,
2013-03-17 13:54:00,26.2,18.1,29.73,SE,135,1.5,1.5,71,0.00,CLR,,0.00,WeatherDisplay:10.37,2013-03-17 20:54:00,
2013-03-17 13:55:00,24.4,18.0,29.79,North,0,0.0,0.0,76,0.00,CLR,CLR,0.00,WeatherDisplay:10.37,2013-03-17 20:55:00,
2013-03-17 13:59:00,26.2,18.1,29.73,SE,135,1.5,1.5,71,0.00,CLR,,0.00,WeatherDisplay:10.37,2013-03-17 20:59:00,
2013-03-17 14:04:00,26.2,18.1,29.73,SE,135,1.5,1.5,71,0.00,CLR,,0.00,WeatherDisplay:10.37,2013-03-17 21:04:00,
2013-03-17 14:05:00,26.2,18.1,29.73,SE,135,1.5,1.5,71,0.00,CLR,,0.00,WeatherDisplay:10.37,2013-03-17 21:05:00,
2013-03-17 14:09:00,26.2,18.1,29.73,SE,135,1.5,1.5,71,0.00,CLR,,0.00,WeatherDisplay:10.37,2013-03-17 21:09:00,
2013-03-17 14:10:00,26.2,18.1,29.73,SE,135,1.5,1.5,71,0.00,CLR,,0.00,WeatherDisplay:10.37,2013-03-17 21:10:00,
2013-03-17 14:14:00,26.2,18.1,29.73,SE,135,1.5,1.5,71,0.00,CLR,,0.00,WeatherDisplay:10.37,2013-03-17 21:14:00,
2013-03-17 14:15:00,26.2,18.1,29.73,SE,135,1.5,1.5,71,0.00,CLR,,0.00,WeatherDisplay:10.37,2013-03-17 21:15:00,
2013-03-17 14:19:00,26.2,18.1,29.73,SE,135,1.5,1.5,71,0.00,CLR,,0.00,WeatherDisplay:10.37,2013-03-17 21:19:00,
2013-03-17 14:20:00,26.2,18.1,29.73,SE,135,1.5,1.5,71,0.00,CLR,,0.00,WeatherDisplay:10.37,2013-03-17 21:20:00,
2013-03-17 14:21:00,26.2,18.1,29.73,SE,135,1.5,1.5,71,0.00,CLR,,0.00,WeatherDisplay:10.37,2013-03-17 21:21:00,
2013-03-17 14:24:00,26.2,18.1,29.73,SE,135,1.5,1.5,71,0.00,CLR,,0.00,WeatherDisplay:10.37,2013-03-17 21:24:00,
2013-03-17 14:25:00,26.2,18.1,29.73,SE,135,1.5,1.5,71,0.00,CLR,,0.00,WeatherDisplay:10.37,2013-03-17 21:25:00,
2013-03-17 14:27:00,26.2,18.1,29.73,SE,135,1.5,1.5,71,0.00,CLR,,0.00,WeatherDisplay:10.37,2013-03-17 21:27:00,
2013-03-17 14:29:00,26.2,18.1,29.73,SE,135,1.5,1.5,71,0.00,CLR,,0.00,WeatherDisplay:10.37,2013-03-17 21:29:00,
2013-03-17 14:30:00,26.2,18.1,29.73,SE,135,1.5,1.5,71,0.00,CLR,,0.00,WeatherDisplay:10.37,2013-03-17 21:30:00,
2013-03-17 14:32:00,26.2,18.1,29.73,SE,135,1.5,1.5,71,0.00,CLR,,0.00,WeatherDisplay:10.37,2013-03-17 21:32:00,
2013-03-17 14:35:00,26.2,18.1,29.73,SE,135,1.5,1.5,71,0.00,CLR,,0.00,WeatherDisplay:10.37,2013-03-17 21:35:00,
2013-03-17 14:38:00,26.2,18.1,29.73,SE,135,1.5,1.5,71,0.00,CLR,,0.00,WeatherDisplay:10.37,2013-03-17 21:38:00,
2013-03-17 14:40:00,26.2,18.1,29.73,SE,135,1.0,1.0,71,0.00,CLR,CLR,0.00,WeatherDisplay:10.37,2013-03-17 21:40:00,
2013-03-17 14:44:00,26.2,18.1,29.73,SE,135,1.5,1.5,71,0.00,CLR,,0.00,WeatherDisplay:10.37,2013-03-17 21:44:00,
2013-03-17 14:45:00,26.2,18.1,29.73,SE,135,1.5,1.5,71,0.00,CLR,,0.00,WeatherDisplay:10.37,2013-03-17 21:45:00,
2013-03-17 14:49:00,26.2,18.1,29.73,SE,135,1.5,1.5,71,0.00,CLR,,0.00,WeatherDisplay:10.37,2013-03-17 21:49:00,
2013-03-17 14:50:00,26.2,18.1,29.73,SE,135,1.5,1.5,71,0.00,CLR,,0.00,WeatherDisplay:10.37,2013-03-17 21:50:00,
2013-03-17 14:54:00,26.2,18.1,29.73,SE,135,1.5,1.5,71,0.00,CLR,,0.00,WeatherDisplay:10.37,2013-03-17 21:54:00,
2013-03-17 14:55:00,26.2,18.1,29.73,SE,135,1.5,1.5,71,0.00,CLR,,0.00,WeatherDisplay:10.37,2013-03-17 21:55:00,
2013-03-17 14:56:00,26.2,18.1,29.73,SE,135,1.5,1.5,71,0.00,CLR,,0.00,WeatherDisplay:10.37,2013-03-17 21:56:00,
2013-03-17 14:59:00,26.2,18.1,29.73,SE,135,1.5,1.5,71,0.00,CLR,,0.00,WeatherDisplay:10.37,2013-03-17 21:59:00,
2013-03-17 15:00:00,26.2,18.1,29.73,SE,135,1.5,1.5,71,0.00,CLR,,0.00,WeatherDisplay:10.37,2013-03-17 22:00:00,
2013-03-17 15:01:00,26.2,18.1,29.73,SE,135,1.5,1.5,71,0.00,CLR,,0.00,WeatherDisplay:10.37,2013-03-17 22:01:00,
2013-03-17 15:04:00,26.2,18.1,29.73,SE,135,1.5,1.5,71,0.00,CLR,,0.00,WeatherDisplay:10.37,2013-03-17 22:04:00,
2013-03-17 15:05:00,26.2,18.1,29.73,SE,135,1.5,1.5,71,0.00,CLR,,0.00,WeatherDisplay:10.37,2013-03-17 22:05:00,
2013-03-17 15:06:00,26.2,18.1,29.73,SE,135,1.5,1.5,71,0.00,CLR,,0.00,WeatherDisplay:10.37,2013-03-17 22:06:00,
2013-03-17 15:07:00,26.2,18.1,29.73,SE,135,1.5,1.5,71,0.00,CLR,,0.00,WeatherDisplay:10.37,2013-03-17 22:07:00,
2013-03-17 15:09:00,26.2,18.1,29.73,SE,135,1.5,1.5,71,0.00,CLR,,0.00,WeatherDisplay:10.37,2013-03-17 22:09:00,
2013-03-17 15:11:00,26.2,18.1,29.73,SE,135,1.5,1.5,71,0.00,CLR,,0.00,WeatherDisplay:10.37,2013-03-17 22:11:00,
2013-03-17 15:12:00,26.2,18.1,29.73,SE,135,1.5,1.5,71,0.00,CLR,,0.00,WeatherDisplay:10.37,2013-03-17 22:12:00,
2013-03-17 15:14:00,26.2,18.1,29.73,SE,135,1.5,1.5,71,0.00,CLR,,0.00,WeatherDisplay:10.37,2013-03-17 22:14:00,
2013-03-17 15:15:00,25.3,19.7,29.79,East,94,0.0,1.0,79,0.00,CLR,CLR,0.00,WeatherDisplay:10.37,2013-03-17 22:15:00,
2013-03-17 15:17:00,26.2,18.1,29.73,SE,135,1.5,1.5,71,0.00,CLR,,0.00,WeatherDisplay:10.37,2013-03-17 22:17:00,
2013-03-17 15:18:00,26.2,18.1,29.73,SE,135,1.5,1.5,71,0.00,CLR,,0.00,WeatherDisplay:10.37,2013-03-17 22:18:00,
2013-03-17 15:20:00,26.2,18.1,29.73,SE,135,1.5,1.5,71,0.00,CLR,,0.00,WeatherDisplay:10.37,2013-03-17 22:20:00,
2013-03-17 15:22:00,26.2,18.1,29.73,SE,135,1.5,1.5,71,0.00,CLR,,0.00,WeatherDisplay:10.37,2013-03-17 22:22:00,
2013-03-17 15:23:00,26.2,18.1,29.73,SE,135,1.5,1.5,71,0.00,CLR,,0.00,WeatherDisplay:10.37,2013-03-17 22:23:00,
2013-03-17 15:25:00,26.2,18.1,29.73,SE,135,1.5,1.5,71,0.00,CLR,,0.00,WeatherDisplay:10.37,2013-03-17 22:25:00,
2013-03-17 15:28:00,26.2,18.1,29.73,SE,135,1.5,1.5,71,0.00,CLR,,0.00,WeatherDisplay:10.37,2013-03-17 22:28:00,
2013-03-17 15:30:00,26.2,18.1,29.73,SE,135,1.5,1.5,71,0.00,CLR,,0.00,WeatherDisplay:10.37,2013-03-17 22:30:00,
2013-03-17 15:33:00,26.2,18.1,29.73,SE,135,1.5,1.5,71,0.00,CLR,,0.00,WeatherDisplay:10.37,2013-03-17 22:33:00,
2013-03-17 15:35:00,26.2,18.1,29.73,SE,135,1.5,1.5,71,0.00,CLR,,0.00,WeatherDisplay:10.37,2013-03-17 22:35:00,
2013-03-17 15:38:00,26.2,18.1,29.73,SE,135,1.5,1.5,71,0.00,CLR,,0.00,WeatherDisplay:10.37,2013-03-17 22:38:00,
2013-03-17 15:40:00,26.2,18.1,29.73,SE,135,1.0,1.0,71,0.00,CLR,CLR,0.00,WeatherDisplay:10.37,2013-03-17 22:40:00,
2013-03-17 15:43:00,26.2,18.1,29.73,SE,135,1.5,1.5,71,0.00,CLR,,0.00,WeatherDisplay:10.37,2013-03-17 22:43:00,
2013-03-17 15:45:00,26.2,18.1,29.73,SE,135,1.5,1.5,71,0.00,CLR,,0.00,WeatherDisplay:10.37,2013-03-17 22:45:00,
2013-03-17 15:48:00,26.2,18.1,29.73,SE,135,1.5,1.5,71,0.00,CLR,,0.00,WeatherDisplay:10.37,2013-03-17 22:48:00,
2013-03-17 15:50:00,26.2,18.1,29.73,SE,135,1.5,1.5,71,0.00,CLR,,0.00,WeatherDisplay:10.37,2013-03-17 22:50:00,
2013-03-17 15:53:00,26.2,18.1,29.73,SE,135,1.5,1.5,71,0.00,CLR,,0.00,WeatherDisplay:10.37,2013-03-17 22:53:00,
2013-03-17 15:55:00,26.2,18.1,29.73,SE,135,1.5,1.5,71,0.00,CLR,,0.00,WeatherDisplay:10.37,2013-03-17 22:55:00,
2013-03-17 15:58:00,26.2,18.1,29.73,SE,135,1.5,1.5,71,0.00,CLR,,0.00,WeatherDisplay:10.37,2013-03-17 22:58:00,
2013-03-17 15:59:00,26.2,18.1,29.73,SE,135,1.5,1.5,71,0.00,CLR,,0.00,WeatherDisplay:10.37,2013-03-17 22:59:00,
2013-03-17 16:00:00,26.2,18.1,29.73,SE,135,1.5,1.5,71,0.00,CLR,,0.00,WeatherDisplay:10.37,2013-03-17 23:00:00,
2013-03-17 16:03:00,26.2,18.1,29.73,SE,135,1.5,1.5,71,0.00,CLR,,0.00,WeatherDisplay:10.37,2013-03-17 23:03:00,
2013-03-17 16:04:00,26.2,18.1,29.73,SE,135,1.5,1.5,71,0.00,CLR,,0.00,WeatherDisplay:10.37,2013-03-17 23:04:00,
2013-03-17 16:05:00,24.4,18.6,29.80,NNW,345,0.0,0.0,78,0.00,CLR,CLR,0.00,WeatherDisplay:10.37,2013-03-17 23:05:00,
2013-03-17 16:07:00,26.2,18.1,29.73,SE,135,1.5,1.5,71,0.00,CLR,,0.00,WeatherDisplay:10.37,2013-03-17 23:07:00,
2013-03-17 16:09:00,26.2,18.1,29.73,SE,135,1.5,1.5,71,0.00,CLR,,0.00,WeatherDisplay:10.37,2013-03-17 23:09:00,
2013-03-17 16:10:00,24.4,18.6,29.80,NNW,338,0.0,0.0,78,0.00,CLR,CLR,0.00,WeatherDisplay:10.37,2013-03-17 23:10:00,
2013-03-17 16:12:00,26.2,18.1,29.73,SE,135,1.5,1.5,71,0.00,CLR,,0.00,WeatherDisplay:10.37,2013-03-17 23:12:00,
2013-03-17 16:14:00,26.2,18.1,29.73,SE,135,1.5,1.5,71,0.00,CLR,,0.00,WeatherDisplay:10.37,2013-03-17 23:14:00,
2013-03-17 16:15:00,23.7,17.6,29.80,North,351,0.0,0.0,77,0.00,CLR,CLR,0.00,WeatherDisplay:10.37,2013-03-17 23:15:00,
2013-03-17 16:18:00,26.2,18.1,29.73,SE,135,1.5,1.5,71,0.00,CLR,,0.00,WeatherDisplay:10.37,2013-03-17 23:18:00,
2013-03-17 16:19:00,26.2,18.1,29.73,SE,135,1.5,1.5,71,0.00,CLR,,0.00,WeatherDisplay:10.37,2013-03-17 23:19:00,
2013-03-17 16:20:00,23.9,18.0,29.80,NE,36,0.0,0.0,78,0.00,CLR,CLR,0.00,WeatherDisplay:10.37,2013-03-17 23:20:00,
2013-03-17 16:23:00,26.2,18.1,29.73,SE,135,1.5,1.5,71,0.00,CLR,,0.00,WeatherDisplay:10.37,2013-03-17 23:23:00,
2013-03-17 16:24:00,26.2,18.1,29.73,SE,135,1.5,1.5,71,0.00,CLR,,0.00,WeatherDisplay:10.37,2013-03-17 23:24:00,
2013-03-17 16:25:00,23.5,17.7,29.81,ENE,57,0.0,0.0,78,0.00,CLR,CLR,0.00,WeatherDisplay:10.37,2013-03-17 23:25:00,
2013-03-17 16:28:00,26.2,18.1,29.73,SE,135,1.5,1.5,71,0.00,CLR,,0.00,WeatherDisplay:10.37,2013-03-17 23:28:00,
2013-03-17 16:29:00,26.2,18.1,29.73,SE,135,1.5,1.5,71,0.00,CLR,,0.00,WeatherDisplay:10.37,2013-03-17 23:29:00,
2013-03-17 16:30:00,23.2,17.0,29.81,NNW,340,0.0,0.0,77,0.00,CLR,CLR,0.00,WeatherDisplay:10.37,2013-03-17 23:30:00,
2013-03-17 16:34:00,26.2,18.1,29.73,SE,135,1.5,1.5,71,0.00,CLR,,0.00,WeatherDisplay:10.37,2013-03-17 23:34:00,
2013-03-17 16:35:00,26.2,18.1,29.73,SE,135,1.5,1.5,71,0.00,CLR,,0.00,WeatherDisplay:10.37,2013-03-17 23:35:00,
2013-03-17 16:39:00,26.2,18.1,29.73,SE,135,1.5,1.5,71,0.00,CLR,,0.00,WeatherDisplay:10.37,2013-03-17 23:39:00,
2013-03-17 16:40:00,26.2,18.1,29.73,SE,135,1.5,1.5,71,0.00,CLR,,0.00,WeatherDisplay:10.37,2013-03-17 23:40:00,
2013-03-17 16:44:00,26.2,18.1,29.73,SE,135,1.5,1.5,71,0.00,CLR,,0.00,WeatherDisplay:10.37,2013-03-17 23:44:00,
2013-03-17 16:45:00,26.2,18.1,29.73,SE,135,1.5,1.5,71,0.00,CLR,,0.00,WeatherDisplay:10.37,2013-03-17 23:45:00,
2013-03-17 16:49:00,26.2,18.1,29.73,SE,135,1.5,1.5,71,0.00,CLR,,0.00,WeatherDisplay:10.37,2013-03-17 23:49:00,
2013-03-17 16:50:00,26.2,18.1,29.73,SE,135,1.5,1.5,71,0.00,CLR,,0.00,WeatherDisplay:10.37,2013-03-17 23:50:00,
2013-03-17 16:54:00,26.2,18.1,29.73,SE,135,1.5,1.5,71,0.00,CLR,,0.00,WeatherDisplay:10.37,2013-03-17 23:54:00,
2013-03-17 16:55:00,26.2,18.1,29.73,SE,135,1.0,1.0,71,0.00,CLR,CLR,0.00,WeatherDisplay:10.37,2013-03-17 23:55:00,
2013-03-17 16:59:00,26.2,18.1,29.73,SE,135,1.5,1.5,71,0.00,CLR,,0.00,WeatherDisplay:10.37,2013-03-17 23:59:00,
2013-03-17 17:00:00,26.2,18.1,29.73,SE,135,1.5,1.5,71,0.00,CLR,,0.00,WeatherDisplay:10.37,2013-03-18 00:00:00,
2013-03-17 17:04:00,26.2,18.1,29.73,SE,135,1.5,1.5,71,0.00,CLR,,0.00,WeatherDisplay:10.37,2013-03-18 00:04:00,
2013-03-17 17:05:00,26.2,18.1,29.73,SE,135,1.5,1.5,71,0.00,CLR,,0.00,WeatherDisplay:10.37,2013-03-18 00:05:00,
2013-03-17 17:06:00,26.2,18.1,29.73,SE,135,1.5,1.5,71,0.00,CLR,,0.00,WeatherDisplay:10.37,2013-03-18 00:06:00,
2013-03-17 17:09:00,26.2,18.1,29.73,SE,135,1.5,1.5,71,0.00,CLR,,0.00,WeatherDisplay:10.37,2013-03-18 00:09:00,
2013-03-17 17:10:00,26.2,18.1,29.73,SE,135,1.5,1.5,71,0.00,CLR,,0.00,WeatherDisplay:10.37,2013-03-18 00:10:00,
2013-03-17 17:12:00,26.2,18.1,29.73,SE,135,1.5,1.5,71,0.00,CLR,,0.00,WeatherDisplay:10.37,2013-03-18 00:12:00,
2013-03-17 17:14:00,26.2,18.1,29.73,SE,135,1.5,1.5,71,0.00,CLR,,0.00,WeatherDisplay:10.37,2013-03-18 00:14:00,
2013-03-17 17:15:00,21.4,15.6,29.81,NW,321,0.0,0.0,78,0.00,CLR,CLR,0.00,WeatherDisplay:10.37,2013-03-18 00:15:00,
2013-03-17 17:16:00,26.2,18.1,29.73,SE,135,1.5,1.5,71,0.00,CLR,,0.00,WeatherDisplay:10.37,2013-03-18 00:16:00,
2013-03-17 17:17:00,26.2,18.1,29.73,SE,135,1.5,1.5,71,0.00,CLR,,0.00,WeatherDisplay:10.37,2013-03-18 00:17:00,
2013-03-17 17:20:00,26.2,18.1,29.73,SE,135,1.5,1.5,71,0.00,CLR,,0.00,WeatherDisplay:10.37,2013-03-18 00:20:00,
2013-03-17 17:21:00,26.2,18.1,29.73,SE,135,1.5,1.5,71,0.00,CLR,,0.00,WeatherDisplay:10.37,2013-03-18 00:21:00,
2013-03-17 17:22:00,26.2,18.1,29.73,SE,135,1.5,1.5,71,0.00,CLR,,0.00,WeatherDisplay:10.37,2013-03-18 00:22:00,
2013-03-17 17:25:00,26.2,18.1,29.73,SE,135,1.5,1.5,71,0.00,CLR,,0.00,WeatherDisplay:10.37,2013-03-18 00:25:00,
2013-03-17 17:27:00,26.2,18.1,29.73,SE,135,1.5,1.5,71,0.00,CLR,,0.00,WeatherDisplay:10.37,2013-03-18 00:27:00,
2013-03-17 17:30:00,26.2,18.1,29.73,SE,135,1.5,1.5,71,0.00,CLR,,0.00,WeatherDisplay:10.37,2013-03-18 00:30:00,
2013-03-17 17:32:00,26.2,18.1,29.73,SE,135,1.5,1.5,71,0.00,CLR,,0.00,WeatherDisplay:10.37,2013-03-18 00:32:00,
2013-03-17 17:33:00,26.2,18.1,29.73,SE,135,1.5,1.5,71,0.00,CLR,,0.00,WeatherDisplay:10.37,2013-03-18 00:33:00,
2013-03-17 17:35:00,26.2,18.1,29.73,SE,135,1.5,1.5,71,0.00,CLR,,0.00,WeatherDisplay:10.37,2013-03-18 00:35:00,
2013-03-17 17:37:00,26.2,18.1,29.73,SE,135,1.5,1.5,71,0.00,CLR,,0.00,WeatherDisplay:10.37,2013-03-18 00:37:00,
2013-03-17 17:38:00,26.2,18.1,29.73,SE,135,1.5,1.5,71,0.00,CLR,,0.00,WeatherDisplay:10.37,2013-03-18 00:38:00,
2013-03-17 17:40:00,21.0,15.2,29.82,NNE,23,0.0,0.0,78,0.00,CLR,CLR,0.00,WeatherDisplay:10.37,2013-03-18 00:40:00,
2013-03-17 17:41:00,26.2,18.1,29.73,SE,135,1.5,1.5,71,0.00,CLR,,0.00,WeatherDisplay:10.37,2013-03-18 00:41:00,
2013-03-17 17:42:00,26.2,18.1,29.73,SE,135,1.5,1.5,71,0.00,CLR,,0.00,WeatherDisplay:10.37,2013-03-18 00:42:00,
2013-03-17 17:43:00,26.2,18.1,29.73,SE,135,1.5,1.5,71,0.00,CLR,,0.00,WeatherDisplay:10.37,2013-03-18 00:43:00,
2013-03-17 17:45:00,21.4,15.6,29.83,NNE,14,0.0,0.0,78,0.00,CLR,CLR,0.00,WeatherDisplay:10.37,2013-03-18 00:45:00,
2013-03-17 17:46:00,26.2,18.1,29.73,SE,135,1.5,1.5,71,0.00,CLR,,0.00,WeatherDisplay:10.37,2013-03-18 00:46:00,
2013-03-17 17:47:00,26.2,18.1,29.73,SE,135,1.5,1.5,71,0.00,CLR,,0.00,WeatherDisplay:10.37,2013-03-18 00:47:00,
2013-03-17 17:48:00,26.2,18.1,29.73,SE,135,1.5,1.5,71,0.00,CLR,,0.00,WeatherDisplay:10.37,2013-03-18 00:48:00,
2013-03-17 17:51:00,26.2,18.1,29.73,SE,135,1.5,1.5,71,0.00,CLR,,0.00,WeatherDisplay:10.37,2013-03-18 00:51:00,
2013-03-17 17:52:00,26.2,18.1,29.73,SE,135,1.5,1.5,71,0.00,CLR,,0.00,WeatherDisplay:10.37,2013-03-18 00:52:00,
2013-03-17 17:53:00,26.2,18.1,29.73,SE,135,1.5,1.5,71,0.00,CLR,,0.00,WeatherDisplay:10.37,2013-03-18 00:53:00,
2013-03-17 17:55:00,26.2,18.1,29.73,SE,135,1.5,1.5,71,0.00,CLR,,0.00,WeatherDisplay:10.37,2013-03-18 00:55:00,
2013-03-17 18:05:00,23.0,17.5,29.82,SSE,151,0.0,0.0,79,0.00,CLR,CLR,0.00,WeatherDisplay:10.37,2013-03-18 01:05:00,
2013-03-17 18:38:00,26.2,18.1,29.73,SE,135,1.5,1.5,71,0.00,CLR,,0.00,WeatherDisplay:10.37,2013-03-18 01:38:00,
2013-03-17 18:39:00,26.2,18.1,29.73,SE,135,1.5,1.5,71,0.00,CLR,,0.00,WeatherDisplay:10.37,2013-03-18 01:39:00,
2013-03-17 18:43:00,26.2,18.1,29.73,SE,135,1.5,1.5,71,0.00,CLR,,0.00,WeatherDisplay:10.37,2013-03-18 01:43:00,
2013-03-17 18:44:00,26.2,18.1,29.73,SE,135,1.5,1.5,71,0.00,CLR,,0.00,WeatherDisplay:10.37,2013-03-18 01:44:00,
2013-03-17 18:48:00,26.2,18.1,29.73,SE,135,1.5,1.5,71,0.00,CLR,,0.00,WeatherDisplay:10.37,2013-03-18 01:48:00,
2013-03-17 18:49:00,26.2,18.1,29.73,SE,135,1.5,1.5,71,0.00,CLR,,0.00,WeatherDisplay:10.37,2013-03-18 01:49:00,
2013-03-17 18:53:00,26.2,18.1,29.73,SE,135,1.5,1.5,71,0.00,CLR,,0.00,WeatherDisplay:10.37,2013-03-18 01:53:00,
2013-03-17 18:54:00,26.2,18.1,29.73,SE,135,1.5,1.5,71,0.00,CLR,,0.00,WeatherDisplay:10.37,2013-03-18 01:54:00,
2013-03-17 18:59:00,26.2,18.1,29.73,SE,135,1.5,1.5,71,0.00,CLR,,0.00,WeatherDisplay:10.37,2013-03-18 01:59:00,
2013-03-17 19:04:00,26.2,18.1,29.73,SE,135,1.5,1.5,71,0.00,CLR,,0.00,WeatherDisplay:10.37,2013-03-18 02:04:00,
2013-03-17 19:09:00,26.2,18.1,29.73,SE,135,1.5,1.5,71,0.00,CLR,,0.00,WeatherDisplay:10.37,2013-03-18 02:09:00,
2013-03-17 19:10:00,26.2,18.1,29.73,SE,135,1.5,1.5,71,0.00,CLR,,0.00,WeatherDisplay:10.37,2013-03-18 02:10:00,
2013-03-17 19:14:00,26.2,18.1,29.73,SE,135,1.5,1.5,71,0.00,CLR,,0.00,WeatherDisplay:10.37,2013-03-18 02:14:00,
2013-03-17 19:15:00,26.2,18.1,29.73,SE,135,1.5,1.5,71,0.00,CLR,,0.00,WeatherDisplay:10.37,2013-03-18 02:15:00,
2013-03-17 19:19:00,26.2,18.1,29.73,SE,135,1.5,1.5,71,0.00,CLR,,0.00,WeatherDisplay:10.37,2013-03-18 02:19:00,
2013-03-17 19:20:00,26.2,18.1,29.73,SE,135,1.5,1.5,71,0.00,CLR,,0.00,WeatherDisplay:10.37,2013-03-18 02:20:00,
2013-03-17 19:24:00,26.2,18.1,29.73,SE,135,1.5,1.5,71,0.00,CLR,,0.00,WeatherDisplay:10.37,2013-03-18 02:24:00,
2013-03-17 19:25:00,26.2,18.1,29.73,SE,135,1.5,1.5,71,0.00,CLR,,0.00,WeatherDisplay:10.37,2013-03-18 02:25:00,
2013-03-17 19:29:00,26.2,18.1,29.73,SE,135,1.5,1.5,71,0.00,CLR,,0.00,WeatherDisplay:10.37,2013-03-18 02:29:00,
2013-03-17 19:30:00,26.2,18.1,29.73,SE,135,1.5,1.5,71,0.00,CLR,,0.00,WeatherDisplay:10.37,2013-03-18 02:30:00,
2013-03-17 19:35:00,26.2,18.1,29.73,SE,135,1.0,1.0,71,0.00,CLR,CLR,0.00,WeatherDisplay:10.37,2013-03-18 02:35:00,
2013-03-17 19:40:00,26.2,18.1,29.73,SE,135,1.0,1.0,71,0.00,CLR,CLR,0.00,WeatherDisplay:10.37,2013-03-18 02:40:00,
2013-03-17 19:45:00,26.2,18.1,29.73,SE,135,1.0,1.0,71,0.00,CLR,CLR,0.00,WeatherDisplay:10.37,2013-03-18 02:45:00,
2013-03-17 19:50:00,26.2,18.1,29.73,SE,135,1.5,1.5,71,0.00,CLR,,0.00,WeatherDisplay:10.37,2013-03-18 02:50:00,
2013-03-17 19:55:00,26.2,18.1,29.73,SE,135,1.5,1.5,71,0.00,CLR,,0.00,WeatherDisplay:10.37,2013-03-18 02:55:00,
2013-03-17 19:57:00,26.2,18.1,29.73,SE,135,1.5,1.5,71,0.00,CLR,,0.00,WeatherDisplay:10.37,2013-03-18 02:57:00,
2013-03-17 20:00:00,26.2,18.1,29.73,SE,135,1.5,1.5,71,0.00,CLR,,0.00,WeatherDisplay:10.37,2013-03-18 03:00:00,
2013-03-17 20:01:00,26.2,18.1,29.73,SE,135,1.5,1.5,71,0.00,CLR,,0.00,WeatherDisplay:10.37,2013-03-18 03:01:00,
2013-03-17 20:02:00,26.2,18.1,29.73,SE,135,1.5,1.5,71,0.00,CLR,,0.00,WeatherDisplay:10.37,2013-03-18 03:02:00,
2013-03-17 20:05:00,26.2,18.1,29.73,SE,135,1.5,1.5,71,0.00,CLR,,0.00,WeatherDisplay:10.37,2013-03-18 03:05:00,
2013-03-17 20:07:00,26.2,18.1,29.73,SE,135,1.5,1.5,71,0.00,CLR,,0.00,WeatherDisplay:10.37,2013-03-18 03:07:00,
2013-03-17 20:10:00,26.2,18.1,29.73,SE,135,1.5,1.5,71,0.00,CLR,,0.00,WeatherDisplay:10.37,2013-03-18 03:10:00,
2013-03-17 20:12:00,26.2,18.1,29.73,SE,135,1.5,1.5,71,0.00,CLR,,0.00,WeatherDisplay:10.37,2013-03-18 03:12:00,
2013-03-17 20:16:00,26.2,18.1,29.73,SE,135,1.5,1.5,71,0.00,CLR,,0.00,WeatherDisplay:10.37,2013-03-18 03:16:00,
2013-03-17 20:17:00,26.2,18.1,29.73,SE,135,1.5,1.5,71,0.00,CLR,,0.00,WeatherDisplay:10.37,2013-03-18 03:17:00,
2013-03-17 20:21:00,26.2,18.1,29.73,SE,135,1.5,1.5,71,0.00,CLR,,0.00,WeatherDisplay:10.37,2013-03-18 03:21:00,
2013-03-17 20:22:00,26.2,18.1,29.73,SE,135,1.5,1.5,71,0.00,CLR,,0.00,WeatherDisplay:10.37,2013-03-18 03:22:00,
2013-03-17 20:23:00,26.2,18.1,29.73,SE,135,1.5,1.5,71,0.00,CLR,,0.00,WeatherDisplay:10.37,2013-03-18 03:23:00,
2013-03-17 20:26:00,26.2,18.1,29.73,SE,135,1.5,1.5,71,0.00,CLR,,0.00,WeatherDisplay:10.37,2013-03-18 03:26:00,
2013-03-17 20:27:00,26.2,18.1,29.73,SE,135,1.5,1.5,71,0.00,CLR,,0.00,WeatherDisplay:10.37,2013-03-18 03:27:00,
2013-03-17 20:28:00,26.2,18.1,29.73,SE,135,1.5,1.5,71,0.00,CLR,,0.00,WeatherDisplay:10.37,2013-03-18 03:28:00,
2013-03-17 20:32:00,26.2,18.1,29.73,SE,135,1.5,1.5,71,0.00,CLR,,0.00,WeatherDisplay:10.37,2013-03-18 03:32:00,
2013-03-17 20:33:00,26.2,18.1,29.73,SE,135,1.5,1.5,71,0.00,CLR,,0.00,WeatherDisplay:10.37,2013-03-18 03:33:00,
2013-03-17 20:37:00,26.2,18.1,29.73,SE,135,1.5,1.5,71,0.00,CLR,,0.00,WeatherDisplay:10.37,2013-03-18 03:37:00,
2013-03-17 20:38:00,26.2,18.1,29.73,SE,135,1.5,1.5,71,0.00,CLR,,0.00,WeatherDisplay:10.37,2013-03-18 03:38:00,
2013-03-17 20:39:00,26.2,18.1,29.73,SE,135,1.5,1.5,71,0.00,CLR,,0.00,WeatherDisplay:10.37,2013-03-18 03:39:00,
2013-03-17 20:43:00,26.2,18.1,29.73,SE,135,1.5,1.5,71,0.00,CLR,,0.00,WeatherDisplay:10.37,2013-03-18 03:43:00,
2013-03-17 20:44:00,26.2,18.1,29.73,SE,135,1.5,1.5,71,0.00,CLR,,0.00,WeatherDisplay:10.37,2013-03-18 03:44:00,
2013-03-17 20:48:00,26.2,18.1,29.73,SE,135,1.5,1.5,71,0.00,CLR,,0.00,WeatherDisplay:10.37,2013-03-18 03:48:00,
2013-03-17 20:49:00,26.2,18.1,29.73,SE,135,1.5,1.5,71,0.00,CLR,,0.00,WeatherDisplay:10.37,2013-03-18 03:49:00,
2013-03-17 20:50:00,26.2,18.1,29.73,SE,135,1.5,1.5,71,0.00,CLR,,0.00,WeatherDisplay:10.37,2013-03-18 03:50:00,
2013-03-17 20:53:00,26.2,18.1,29.73,SE,135,1.5,1.5,71,0.00,CLR,,0.00,WeatherDisplay:10.37,2013-03-18 03:53:00,
2013-03-17 20:54:00,26.2,18.1,29.73,SE,135,1.5,1.5,71,0.00,CLR,,0.00,WeatherDisplay:10.37,2013-03-18 03:54:00,
2013-03-17 20:55:00,26.2,18.1,29.73,SE,135,1.5,1.5,71,0.00,CLR,,0.00,WeatherDisplay:10.37,2013-03-18 03:55:00,
2013-03-17 20:58:00,26.2,18.1,29.73,SE,135,1.5,1.5,71,0.00,CLR,,0.00,WeatherDisplay:10.37,2013-03-18 03:58:00,
2013-03-17 20:59:00,26.2,18.1,29.73,SE,135,1.5,1.5,71,0.00,CLR,,0.00,WeatherDisplay:10.37,2013-03-18 03:59:00,
2013-03-17 21:00:00,26.2,18.1,29.73,SE,135,1.5,1.5,71,0.00,CLR,,0.00,WeatherDisplay:10.37,2013-03-18 04:00:00,
2013-03-17 21:05:00,26.2,18.1,29.73,SE,135,1.0,1.0,71,0.00,CLR,CLR,0.00,WeatherDisplay:10.37,2013-03-18 04:05:00,
2013-03-17 21:10:00,26.2,18.1,29.73,SE,135,1.5,1.5,71,0.00,CLR,,0.00,WeatherDisplay:10.37,2013-03-18 04:10:00,
2013-03-17 21:11:00,26.2,18.1,29.73,SE,135,1.5,1.5,71,0.00,CLR,,0.00,WeatherDisplay:10.37,2013-03-18 04:11:00,
2013-03-17 21:15:00,26.2,18.1,29.73,SE,135,1.5,1.5,71,0.00,CLR,,0.00,WeatherDisplay:10.37,2013-03-18 04:15:00,
2013-03-17 21:16:00,26.2,18.1,29.73,SE,135,1.5,1.5,71,0.00,CLR,,0.00,WeatherDisplay:10.37,2013-03-18 04:16:00,
2013-03-17 21:20:00,26.2,18.1,29.73,SE,135,1.5,1.5,71,0.00,CLR,,0.00,WeatherDisplay:10.37,2013-03-18 04:20:00,
2013-03-17 21:21:00,26.2,18.1,29.73,SE,135,1.5,1.5,71,0.00,CLR,,0.00,WeatherDisplay:10.37,2013-03-18 04:21:00,
2013-03-17 21:22:00,26.2,18.1,29.73,SE,135,1.5,1.5,71,0.00,CLR,,0.00,WeatherDisplay:10.37,2013-03-18 04:22:00,
2013-03-17 21:25:00,26.2,18.1,29.73,SE,135,1.5,1.5,71,0.00,CLR,,0.00,WeatherDisplay:10.37,2013-03-18 04:25:00,
2013-03-17 21:26:00,26.2,18.1,29.73,SE,135,1.5,1.5,71,0.00,CLR,,0.00,WeatherDisplay:10.37,2013-03-18 04:26:00,
2013-03-17 21:27:00,26.2,18.1,29.73,SE,135,1.5,1.5,71,0.00,CLR,,0.00,WeatherDisplay:10.37,2013-03-18 04:27:00,
2013-03-17 21:30:00,26.2,18.1,29.73,SE,135,1.5,1.5,71,0.00,CLR,,0.00,WeatherDisplay:10.37,2013-03-18 04:30:00,
2013-03-17 21:31:00,26.2,18.1,29.73,SE,135,1.5,1.5,71,0.00,CLR,,0.00,WeatherDisplay:10.37,2013-03-18 04:31:00,
2013-03-17 21:32:00,26.2,18.1,29.73,SE,135,1.5,1.5,71,0.00,CLR,,0.00,WeatherDisplay:10.37,2013-03-18 04:32:00,
2013-03-17 21:35:00,26.2,18.1,29.73,SE,135,1.5,1.5,71,0.00,CLR,,0.00,WeatherDisplay:10.37,2013-03-18 04:35:00,
2013-03-17 21:36:00,26.2,18.1,29.73,SE,135,1.5,1.5,71,0.00,CLR,,0.00,WeatherDisplay:10.37,2013-03-18 04:36:00,
2013-03-17 21:37:00,26.2,18.1,29.73,SE,135,1.5,1.5,71,0.00,CLR,,0.00,WeatherDisplay:10.37,2013-03-18 04:37:00,
2013-03-17 21:40:00,26.2,18.1,29.73,SE,135,1.5,1.5,71,0.00,CLR,,0.00,WeatherDisplay:10.37,2013-03-18 04:40:00,
2013-03-17 21:42:00,26.2,18.1,29.73,SE,135,1.5,1.5,71,0.00,CLR,,0.00,WeatherDisplay:10.37,2013-03-18 04:42:00,
2013-03-17 21:45:00,26.2,18.1,29.73,SE,135,1.5,1.5,71,0.00,CLR,,0.00,WeatherDisplay:10.37,2013-03-18 04:45:00,
2013-03-17 21:47:00,26.2,18.1,29.73,SE,135,1.5,1.5,71,0.00,CLR,,0.00,WeatherDisplay:10.37,2013-03-18 04:47:00,
2013-03-17 21:48:00,26.2,18.1,29.73,SE,135,1.5,1.5,71,0.00,CLR,,0.00,WeatherDisplay:10.37,2013-03-18 04:48:00,
2013-03-17 21:51:00,26.2,18.1,29.73,SE,135,1.5,1.5,71,0.00,CLR,,0.00,WeatherDisplay:10.37,2013-03-18 04:51:00,
2013-03-17 21:53:00,26.2,18.1,29.73,SE,135,1.5,1.5,71,0.00,CLR,,0.00,WeatherDisplay:10.37,2013-03-18 04:53:00,
2013-03-17 21:56:00,26.2,18.1,29.73,SE,135,1.5,1.5,71,0.00,CLR,,0.00,WeatherDisplay:10.37,2013-03-18 04:56:00,
2013-03-17 21:57:00,26.2,18.1,29.73,SE,135,1.5,1.5,71,0.00,CLR,,0.00,WeatherDisplay:10.37,2013-03-18 04:57:00,
2013-03-17 21:58:00,26.2,18.1,29.73,SE,135,1.5,1.5,71,0.00,CLR,,0.00,WeatherDisplay:10.37,2013-03-18 04:58:00,
2013-03-17 22:01:00,26.2,18.1,29.73,SE,135,1.5,1.5,71,0.00,CLR,,0.00,WeatherDisplay:10.37,2013-03-18 05:01:00,
2013-03-17 22:03:00,26.2,18.1,29.73,SE,135,1.5,1.5,71,0.00,CLR,,0.00,WeatherDisplay:10.37,2013-03-18 05:03:00,
2013-03-17 22:07:00,26.2,18.1,29.73,SE,135,1.5,1.5,71,0.00,CLR,,0.00,WeatherDisplay:10.37,2013-03-18 05:07:00,
2013-03-17 22:08:00,26.2,18.1,29.73,SE,135,1.5,1.5,71,0.00,CLR,,0.00,WeatherDisplay:10.37,2013-03-18 05:08:00,
2013-03-17 22:12:00,26.2,18.1,29.73,SE,135,1.5,1.5,71,0.00,CLR,,0.00,WeatherDisplay:10.37,2013-03-18 05:12:00,
2013-03-17 22:13:00,26.2,18.1,29.73,SE,135,1.5,1.5,71,0.00,CLR,,0.00,WeatherDisplay:10.37,2013-03-18 05:13:00,
2013-03-17 22:17:00,26.2,18.1,29.73,SE,135,1.5,1.5,71,0.00,CLR,,0.00,WeatherDisplay:10.37,2013-03-18 05:17:00,
2013-03-17 22:18:00,26.2,18.1,29.73,SE,135,1.5,1.5,71,0.00,CLR,,0.00,WeatherDisplay:10.37,2013-03-18 05:18:00,
2013-03-17 22:22:00,26.2,18.1,29.73,SE,135,1.5,1.5,71,0.00,CLR,,0.00,WeatherDisplay:10.37,2013-03-18 05:22:00,
2013-03-17 22:23:00,26.2,18.1,29.73,SE,135,1.5,1.5,71,0.00,CLR,,0.00,WeatherDisplay:10.37,2013-03-18 05:23:00,
2013-03-17 22:24:00,26.2,18.1,29.73,SE,135,1.5,1.5,71,0.00,CLR,,0.00,WeatherDisplay:10.37,2013-03-18 05:24:00,
2013-03-17 22:27:00,26.2,18.1,29.73,SE,135,1.5,1.5,71,0.00,CLR,,0.00,WeatherDisplay:10.37,2013-03-18 05:27:00,
2013-03-17 22:28:00,26.2,18.1,29.73,SE,135,1.5,1.5,71,0.00,CLR,,0.00,WeatherDisplay:10.37,2013-03-18 05:28:00,
2013-03-17 22:29:00,26.2,18.1,29.73,SE,135,1.5,1.5,71,0.00,CLR,,0.00,WeatherDisplay:10.37,2013-03-18 05:29:00,
2013-03-17 22:32:00,26.2,18.1,29.73,SE,135,1.5,1.5,71,0.00,CLR,,0.00,WeatherDisplay:10.37,2013-03-18 05:32:00,
2013-03-17 22:33:00,26.2,18.1,29.73,SE,135,1.5,1.5,71,0.00,CLR,,0.00,WeatherDisplay:10.37,2013-03-18 05:33:00,
2013-03-17 22:34:00,26.2,18.1,29.73,SE,135,1.5,1.5,71,0.00,CLR,,0.00,WeatherDisplay:10.37,2013-03-18 05:34:00,
2013-03-17 22:37:00,26.2,18.1,29.73,SE,135,1.5,1.5,71,0.00,CLR,,0.00,WeatherDisplay:10.37,2013-03-18 05:37:00,
2013-03-17 22:38:00,26.2,18.1,29.73,SE,135,1.5,1.5,71,0.00,CLR,,0.00,WeatherDisplay:10.37,2013-03-18 05:38:00,
2013-03-17 22:39:00,26.2,18.1,29.73,SE,135,1.5,1.5,71,0.00,CLR,,0.00,WeatherDisplay:10.37,2013-03-18 05:39:00,
2013-03-17 22:42:00,26.2,18.1,29.73,SE,135,1.5,1.5,71,0.00,CLR,,0.00,WeatherDisplay:10.37,2013-03-18 05:42:00,
2013-03-17 22:44:00,26.2,18.1,29.73,SE,135,1.5,1.5,71,0.00,CLR,,0.00,WeatherDisplay:10.37,2013-03-18 05:44:00,
2013-03-17 22:48:00,26.2,18.1,29.73,SE,135,1.5,1.5,71,0.00,CLR,,0.00,WeatherDisplay:10.37,2013-03-18 05:48:00,
2013-03-17 22:49:00,26.2,18.1,29.73,SE,135,1.5,1.5,71,0.00,CLR,,0.00,WeatherDisplay:10.37,2013-03-18 05:49:00,
2013-03-17 22:53:00,26.2,18.1,29.73,SE,135,1.5,1.5,71,0.00,CLR,,0.00,WeatherDisplay:10.37,2013-03-18 05:53:00,
2013-03-17 22:54:00,26.2,18.1,29.73,SE,135,1.5,1.5,71,0.00,CLR,,0.00,WeatherDisplay:10.37,2013-03-18 05:54:00,
2013-03-17 22:55:00,26.2,18.1,29.73,SE,135,1.5,1.5,71,0.00,CLR,,0.00,WeatherDisplay:10.37,2013-03-18 05:55:00,
2013-03-17 22:58:00,26.2,18.1,29.73,SE,135,1.5,1.5,71,0.00,CLR,,0.00,WeatherDisplay:10.37,2013-03-18 05:58:00,
2013-03-17 22:59:00,26.2,18.1,29.73,SE,135,1.5,1.5,71,0.00,CLR,,0.00,WeatherDisplay:10.37,2013-03-18 05:59:00,
2013-03-17 23:00:00,26.2,18.1,29.73,SE,135,1.5,1.5,71,0.00,CLR,,0.00,WeatherDisplay:10.37,2013-03-18 06:00:00,
2013-03-17 23:03:00,26.2,18.1,29.73,SE,135,1.5,1.5,71,0.00,CLR,,0.00,WeatherDisplay:10.37,2013-03-18 06:03:00,
2013-03-17 23:04:00,26.2,18.1,29.73,SE,135,1.5,1.5,71,0.00,CLR,,0.00,WeatherDisplay:10.37,2013-03-18 06:04:00,
2013-03-17 23:05:00,26.2,18.1,29.73,SE,135,1.5,1.5,71,0.00,CLR,,0.00,WeatherDisplay:10.37,2013-03-18 06:05:00,
2013-03-17 23:09:00,26.2,18.1,29.73,SE,135,1.5,1.5,71,0.00,CLR,,0.00,WeatherDisplay:10.37,2013-03-18 06:09:00,
2013-03-17 23:10:00,26.2,18.1,29.73,SE,135,1.5,1.5,71,0.00,CLR,,0.00,WeatherDisplay:10.37,2013-03-18 06:10:00,
2013-03-17 23:14:00,26.2,18.1,29.73,SE,135,1.5,1.5,71,0.00,CLR,,0.00,WeatherDisplay:10.37,2013-03-18 06:14:00,
2013-03-17 23:15:00,26.2,18.1,29.73,SE,135,1.5,1.5,71,0.00,CLR,,0.00,WeatherDisplay:10.37,2013-03-18 06:15:00,
2013-03-17 23:19:00,26.2,18.1,29.73,SE,135,1.5,1.5,71,0.00,CLR,,0.00,WeatherDisplay:10.37,2013-03-18 06:19:00,
2013-03-17 23:20:00,26.2,18.1,29.73,SE,135,1.5,1.5,71,0.00,CLR,,0.00,WeatherDisplay:10.37,2013-03-18 06:20:00,
2013-03-17 23:24:00,26.2,18.1,29.73,SE,135,1.5,1.5,71,0.00,CLR,,0.00,WeatherDisplay:10.37,2013-03-18 06:24:00,
2013-03-17 23:25:00,26.2,18.1,29.73,SE,135,1.5,1.5,71,0.00,CLR,,0.00,WeatherDisplay:10.37,2013-03-18 06:25:00,
2013-03-17 23:29:00,26.2,18.1,29.73,SE,135,1.5,1.5,71,0.00,CLR,,0.00,WeatherDisplay:10.37,2013-03-18 06:29:00,
2013-03-17 23:30:00,26.2,18.1,29.73,SE,135,1.5,1.5,71,0.00,CLR,,0.00,WeatherDisplay:10.37,2013-03-18 06:30:00,
2013-03-17 23:34:00,26.2,18.1,29.73,SE,135,1.5,1.5,71,0.00,CLR,,0.00,WeatherDisplay:10.37,2013-03-18 06:34:00,
2013-03-17 23:35:00,26.2,18.1,29.73,SE,135,1.5,1.5,71,0.00,CLR,,0.00,WeatherDisplay:10.37,2013-03-18 06:35:00,
2013-03-17 23:36:00,26.2,18.1,29.73,SE,135,1.5,1.5,71,0.00,CLR,,0.00,WeatherDisplay:10.37,2013-03-18 06:36:00,
2013-03-17 23:39:00,26.2,18.1,29.73,SE,135,1.5,1.5,71,0.00,CLR,,0.00,WeatherDisplay:10.37,2013-03-18 06:39:00,
2013-03-17 23:40:00,26.2,18.1,29.73,SE,135,1.5,1.5,71,0.00,CLR,,0.00,WeatherDisplay:10.37,2013-03-18 06:40:00,
2013-03-17 23:41:00,26.2,18.1,29.73,SE,135,1.5,1.5,71,0.00,CLR,,0.00,WeatherDisplay:10.37,2013-03-18 06:41:00,
2013-03-17 23:44:00,26.2,18.1,29.73,SE,135,1.5,1.5,71,0.00,CLR,,0.00,WeatherDisplay:10.37,2013-03-18 06:44:00,
2013-03-17 23:45:00,26.2,18.1,29.73,SE,135,1.5,1.5,71,0.00,CLR,,0.00,WeatherDisplay:10.37,2013-03-18 06:45:00,
2013-03-17 23:46:00,26.2,18.1,29.73,SE,135,1.5,1.5,71,0.00,CLR,,0.00,WeatherDisplay:10.37,2013-03-18 06:46:00,
2013-03-17 23:50:00,26.2,18.1,29.73,SE,135,1.5,1.5,71,0.00,CLR,,0.00,WeatherDisplay:10.37,2013-03-18 06:50:00,
2013-03-17 23:52:00,26.2,18.1,29.73,SE,135,1.5,1.5,71,0.00,CLR,,0.00,WeatherDisplay:10.37,2013-03-18 06:52:00,
2013-03-17 23:55:00,26.2,18.1,29.73,SE,135,1.5,1.5,71,0.00,CLR,,0.00,WeatherDisplay:10.37,2013-03-18 06:55:00,
2013-03-17 23:57:00,26.2,18.1,29.73,SE,135,1.5,1.5,71,0.00,CLR,,0.00,WeatherDisplay:10.37,2013-03-18 06:57:00,